Bel Air, Maryland - USA


Today's Data File


5/2/26
Time         Wind Dir   Wind Spd  Wind Gust     Hum In   Humidity    Temp In       Temp  Raw Barom Wind Chill  Press Alt Cloud Base   Dens Alt Temp Out R  DailyRain   24HrRain   RainRate
                    �        mph        mph          %          %         �F         �F         in         �F         ft         ft         ft      �F/hr         in         in      in/hr
12:00am           226          0          0         40         80       74.3       54.0      29.33       54.0        549       1505        368      -1.01       0.00       0.00      0.000
12:01am           226          0          0         40         80       74.3       53.8      29.33       53.8        549       1504        354      -1.18       0.00       0.00      0.000
12:02am           226          0          0         40         80       74.3       53.9      29.33       53.9        548       1505        360      -1.08       0.00       0.00      0.000
12:03am           226          0          0         40         80       74.3       53.8      29.33       53.8        548       1504        352      -1.16       0.00       0.00      0.000
12:04am           226          0          0         40         80       74.3       53.7      29.33       53.7        548       1503        345      -1.23       0.00       0.00      0.000
12:05am           226          0          0         40         81       74.3       53.7      29.33       53.7        548       1421        345      -1.21       0.00       0.00      0.000
12:06am           226          0          0         40         81       74.3       53.6      29.33       53.6        547       1420        338      -1.29       0.00       0.00      0.000
12:07am           226          0          0         40         81       74.3       53.6      29.33       53.6        547       1420        338      -1.27       0.00       0.00      0.000
12:08am           226          0          0         40         81       74.3       53.5      29.33       53.5        547       1419        331      -1.35       0.00       0.00      0.000
12:09am           226          0          0         40         82       74.3       53.6      29.33       53.6        547       1338        338      -1.23       0.00       0.00      0.000
12:10am           226          0          0         40         83       74.3       53.5      29.33       53.5        547       1257        331      -1.31       0.00       0.00      0.000
12:11am           226          0          0         40         83       74.3       53.5      29.33       53.5        547       1257        331      -1.28       0.00       0.00      0.000
12:12am           226          0          0         40         83       74.3       53.4      29.33       53.4        547       1256        324      -1.36       0.00       0.00      0.000
12:13am           226          1          1         40         83       74.3       53.4      29.33       53.4        548       1256        325      -1.34       0.00       0.00      0.000
12:14am           226          0          2         40         83       74.3       53.4      29.33       53.4        548       1256        325      -1.32       0.00       0.00      0.000
12:15am           226          0          2         40         83       74.3       53.4      29.33       53.4        548       1256        327      -1.30       0.00       0.00      0.000
12:16am           226          0          0         40         83       74.3       53.3      29.33       53.3        548       1256        320      -1.37       0.00       0.00      0.000
12:17am           226          0          0         40         83       74.3       53.3      29.33       53.3        549       1256        321      -1.35       0.00       0.00      0.000
12:18am           226          0          0         40         83       74.3       53.3      29.33       53.3        550       1256        322      -1.33       0.00       0.00      0.000
12:19am           226          0          0         40         83       74.3       53.3      29.33       53.3        550       1256        322      -1.31       0.00       0.00      0.000
12:20am           226          0          0         40         83       74.3       53.2      29.33       53.2        549       1255        314      -1.38       0.00       0.00      0.000
12:21am           226          0          0         40         83       74.3       53.2      29.33       53.2        548       1255        313      -1.36       0.00       0.00      0.000
12:22am           226          0          0         40         83       74.3       53.2      29.33       53.2        548       1255        313      -1.34       0.00       0.00      0.000
12:23am           226          0          0         40         83       74.3       53.2      29.33       53.2        548       1255        313      -1.32       0.00       0.00      0.000
12:24am           226          0          0         40         83       74.3       53.2      29.33       53.2        548       1255        313      -1.29       0.00       0.00      0.000
12:25am           226          0          0         40         83       74.3       53.1      29.33       53.1        548       1255        307      -1.37       0.00       0.00      0.000
12:26am           226          0          0         40         83       74.3       53.1      29.33       53.1        548       1255        307      -1.35       0.00       0.00      0.000
12:27am           226          0          0         40         83       74.3       53.1      29.33       53.1        548       1255        306      -1.33       0.00       0.00      0.000
12:28am           226          0          0         40         83       74.3       53.1      29.33       53.1        548       1255        306      -1.31       0.00       0.00      0.000
12:29am           226          0          0         40         83       74.3       53.1      29.33       53.1        548       1255        306      -1.28       0.00       0.00      0.000
12:30am           226          0          0         40         83       74.3       53.1      29.33       53.1        548       1255        306      -1.26       0.00       0.00      0.000
12:31am           226          0          0         40         83       74.3       53.0      29.33       53.0        548       1254        299      -1.34       0.00       0.00      0.000
12:32am           226          0          0         40         83       74.3       53.0      29.33       53.0        547       1254        298      -1.32       0.00       0.00      0.000
12:33am           226          0          0         40         84       74.3       53.1      29.33       53.1        547       1175        304      -1.20       0.00       0.00      0.000
12:34am           226          0          0         40         84       74.3       53.0      29.33       53.0        547       1174        298      -1.28       0.00       0.00      0.000
12:35am           226          0          0         40         84       74.3       52.9      29.33       52.9        547       1174        291      -1.35       0.00       0.00      0.000
12:36am           226          0          0         40         84       74.3       53.0      29.33       53.0        548       1174        299      -1.23       0.00       0.00      0.000
12:37am           226          0          0         40         84       74.3       52.9      29.33       52.9        548       1174        292      -1.31       0.00       0.00      0.000
12:38am           226          0          0         40         84       74.3       52.9      29.33       52.9        548       1174        292      -1.29       0.00       0.00      0.000
12:39am           226          0          0         40         83       74.3       52.9      29.33       52.9        547       1254        291      -1.27       0.00       0.00      0.000
12:40am           226          0          0         40         84       74.3       52.8      29.33       52.8        547       1173        284      -1.35       0.00       0.00      0.000
12:41am           226          0          0         40         83       74.5       52.8      29.33       52.8        547       1253        284      -1.33       0.00       0.00      0.000
12:42am           226          0          0         40         84       74.5       52.8      29.33       52.8        546       1173        283      -1.30       0.00       0.00      0.000
12:43am           226          0          0         40         84       74.5       52.8      29.33       52.8        546       1173        283      -1.28       0.00       0.00      0.000
12:44am           226          0          0         40         84       74.3       52.8      29.33       52.8        546       1173        283      -1.26       0.00       0.00      0.000
12:45am           226          0          0         40         84       74.3       52.8      29.33       52.8        546       1173        283      -1.24       0.00       0.00      0.000
12:46am           226          0          0         40         84       74.5       52.8      29.33       52.8        547       1173        284      -1.22       0.00       0.00      0.000
12:47am           226          0          0         40         84       74.3       52.8      29.33       52.8        547       1173        284      -1.20       0.00       0.00      0.000
12:48am           226          0          0         40         84       74.3       52.8      29.33       52.8        546       1173        283      -1.18       0.00       0.00      0.000
12:49am           226          0          0         40         84       74.3       52.8      29.34       52.8        545       1173        282      -1.16       0.00       0.00      0.000
12:50am           226          0          0         40         84       74.3       52.7      29.34       52.7        545       1173        276      -1.24       0.00       0.00      0.000
12:51am           226          0          0         40         84       74.3       52.7      29.34       52.7        545       1173        276      -1.22       0.00       0.00      0.000
12:52am           226          0          0         40         84       74.3       52.7      29.33       52.7        546       1173        277      -1.20       0.00       0.00      0.000
12:53am           226          0          0         40         85       74.3       52.7      29.33       52.7        546       1094        277      -1.18       0.00       0.00      0.000
12:54am           226          0          0         40         85       74.3       52.7      29.33       52.7        547       1094        278      -1.16       0.00       0.00      0.000
12:55am           226          0          0         40         85       74.5       52.7      29.33       52.7        547       1094        278      -1.14       0.00       0.00      0.000
12:56am           226          0          0         40         85       74.3       52.7      29.33       52.7        547       1094        278      -1.12       0.00       0.00      0.000
12:57am           226          0          0         40         84       74.3       52.6      29.33       52.6        548       1172        272      -1.20       0.00       0.00      0.000
12:58am           226          0          0         41         84       74.3       52.6      29.33       52.6        548       1172        273      -1.18       0.00       0.00      0.000
12:59am           226          0          0         40         84       74.5       52.6      29.33       52.6        548       1172        273      -1.16       0.00       0.00      0.000
1:00am            226          0          0         40         84       74.5       52.6      29.33       52.6        550       1172        276      -1.14       0.00       0.00      0.000
1:01am            226          0          0         40         84       74.5       52.6      29.33       52.6        549       1172        275      -1.12       0.00       0.00      0.000
1:02am            226          0          0         40         84       74.5       52.5      29.33       52.5        550       1172        269      -1.20       0.00       0.00      0.000
1:03am            226          0          0         40         84       74.5       52.5      29.33       52.5        548       1172        267      -1.19       0.00       0.00      0.000
1:04am            226          0          0         40         84       74.5       52.5      29.33       52.5        548       1172        267      -1.17       0.00       0.00      0.000
1:05am            226          0          0         40         84       74.5       52.5      29.33       52.5        548       1172        266      -1.15       0.00       0.00      0.000
1:06am            226          0          0         40         84       74.5       52.5      29.33       52.5        547       1172        264      -1.13       0.00       0.00      0.000
1:07am            226          0          1         40         85       74.5       52.5      29.33       52.5        547       1093        264      -1.11       0.00       0.00      0.000
1:08am            226          1          1         40         85       74.5       52.5      29.33       52.5        546       1093        263      -1.09       0.00       0.00      0.000
1:09am            280          2          2         40         85       74.5       52.5      29.33       52.5        546       1093        263      -1.07       0.00       0.00      0.000
1:10am            280          1          2         40         84       74.5       52.4      29.34       52.4        545       1171        256      -1.15       0.00       0.00      0.000
1:11am            272          1          2         40         84       74.5       52.4      29.34       52.4        545       1171        256      -1.14       0.00       0.00      0.000
1:12am            272          0          2         40         84       74.5       52.5      29.34       52.5        545       1172        262      -1.02       0.00       0.00      0.000
1:13am            272          0          2         40         85       74.5       52.4      29.34       52.4        545       1092        256      -1.10       0.00       0.00      0.000
1:14am            264          0          2         40         84       74.5       52.4      29.34       52.4        545       1171        256      -1.08       0.00       0.00      0.000
1:15am            260          1          2         40         84       74.5       52.4      29.33       52.4        546       1171        257      -1.06       0.00       0.00      0.000
1:16am            260          0          2         40         84       74.5       52.5      29.33       52.5        547       1172        264      -0.95       0.00       0.00      0.000
1:17am             98          1          4         41         85       74.5       52.4      29.33       52.4        547       1092        258      -1.03       0.00       0.00      0.000
1:18am            300          3          4         40         84       74.5       52.5      29.33       52.5        547       1172        264      -0.91       0.00       0.00      0.000
1:19am            300          2          4         40         85       74.5       52.4      29.33       52.4        546       1092        257      -1.00       0.00       0.00      0.000
1:20am            300          0          4         40         85       74.5       52.5      29.33       52.5        546       1093        263      -0.88       0.00       0.00      0.000
1:21am            300          0          0         40         85       74.5       52.5      29.33       52.5        546       1093        263      -0.87       0.00       0.00      0.000
1:22am            300          2          2         40         85       74.5       52.5      29.34       52.5        545       1093        262      -0.85       0.00       0.00      0.000
1:23am            341          1          4         40         85       74.5       52.5      29.34       52.5        545       1093        262      -0.84       0.00       0.00      0.000
1:24am            181          2          5         40         84       74.5       52.4      29.33       52.4        546       1171        257      -0.93       0.00       0.00      0.000
1:25am            181          2          5         40         83       74.5       52.3      29.34       52.3        544       1250        248      -1.01       0.00       0.00      0.000
1:26am            284          2          2         40         84       74.5       52.4      29.34       52.4        543       1171        253      -0.89       0.00       0.00      0.000
1:27am            300          0          4         40         84       74.5       52.4      29.34       52.4        543       1171        253      -0.88       0.00       0.00      0.000
1:28am            300          1          4         40         84       74.5       52.4      29.34       52.4        542       1171        252      -0.86       0.00       0.00      0.000
1:29am            300          1          4         40         84       74.5       52.4      29.34       52.4        545       1171        256      -0.85       0.00       0.00      0.000
1:30am            300          0          4         40         83       74.5       52.4      29.33       52.4        546       1251        257      -0.84       0.00       0.00      0.000
1:31am            348          0          3         40         83       74.5       52.4      29.33       52.4        547       1251        258      -0.82       0.00       0.00      0.000
1:32am            348          0          3         40         83       74.5       52.4      29.33       52.4        546       1251        257      -0.81       0.00       0.00      0.000
1:33am            348          0          3         40         83       74.5       52.4      29.33       52.4        546       1251        257      -0.80       0.00       0.00      0.000
1:34am            342          1          3         40         84       74.5       52.4      29.34       52.4        544       1171        254      -0.78       0.00       0.00      0.000
1:35am            349          1          3         40         84       74.5       52.4      29.34       52.4        544       1171        254      -0.77       0.00       0.00      0.000
1:36am            353          0          1         40         83       74.5       52.4      29.34       52.4        545       1251        256      -0.76       0.00       0.00      0.000
1:37am            353          0          1         40         83       74.5       52.3      29.33       52.3        546       1250        250      -0.84       0.00       0.00      0.000
1:38am            335          1          1         40         83       74.5       52.3      29.33       52.3        546       1250        250      -0.83       0.00       0.00      0.000
1:39am            336          1          2         40         83       74.5       52.3      29.33       52.3        546       1250        250      -0.82       0.00       0.00      0.000
1:40am            336          0          2         40         83       74.5       52.3      29.34       52.3        545       1250        249      -0.80       0.00       0.00      0.000
1:41am            336          0          1         40         82       74.5       52.2      29.33       52.2        546       1330        243      -0.89       0.00       0.00      0.000
1:42am            336          0          1         40         82       74.5       52.3      29.34       52.3        545       1331        249      -0.78       0.00       0.00      0.000
1:43am            336          0          1         40         82       74.5       52.2      29.34       52.2        545       1330        242      -0.86       0.00       0.00      0.000
1:44am            336          1          1         40         82       74.5       52.2      29.34       52.2        545       1330        242      -0.85       0.00       0.00      0.000
1:45am            336          0          1         40         82       74.5       52.1      29.33       52.1        546       1330        237      -0.93       0.00       0.00      0.000
1:46am            336          0          0         40         82       74.5       52.1      29.34       52.1        545       1330        236      -0.92       0.00       0.00      0.000
1:47am            336          0          0         40         82       74.5       52.1      29.34       52.1        545       1330        236      -0.90       0.00       0.00      0.000
1:48am            336          0          0         40         82       74.5       52.1      29.33       52.1        546       1330        237      -0.89       0.00       0.00      0.000
1:49am            336          0          1         40         82       74.5       52.1      29.33       52.1        546       1330        237      -0.87       0.00       0.00      0.000
1:50am            336          0          1         40         82       74.5       52.1      29.33       52.1        546       1330        237      -0.86       0.00       0.00      0.000
1:51am            336          0          0         40         82       74.5       52.0      29.33       52.0        546       1329        230      -0.94       0.00       0.00      0.000
1:52am            336          0          1         40         82       74.5       52.0      29.33       52.0        546       1329        230      -0.93       0.00       0.00      0.000
1:53am            336          2          2         40         82       74.5       52.0      29.34       52.0        545       1329        229      -0.91       0.00       0.00      0.000
1:54am            336          0          2         40         82       74.5       52.0      29.34       52.0        545       1329        229      -0.90       0.00       0.00      0.000
1:55am            336          0          2         40         82       74.5       51.9      29.34       51.9        545       1328        222      -0.98       0.00       0.00      0.000
1:56am            336          0          0         40         82       74.5       51.9      29.34       51.9        545       1328        222      -0.97       0.00       0.00      0.000
1:57am            336          0          1         40         82       74.5       52.0      29.34       52.0        545       1329        229      -0.85       0.00       0.00      0.000
1:58am            336          0          1         40         82       74.5       51.9      29.33       51.9        546       1328        223      -0.94       0.00       0.00      0.000
1:59am            336          0          1         40         82       74.5       51.9      29.33       51.9        546       1328        223      -0.92       0.00       0.00      0.000
2:00am            336          0          1         40         82       74.5       51.9      29.33       51.9        546       1328        223      -0.91       0.00       0.00      0.000
2:01am            336          0          0         40         82       74.5       51.9      29.33       51.9        546       1328        223      -0.89       0.00       0.00      0.000
2:02am            336          0          0         40         82       74.5       51.9      29.33       51.9        546       1328        223      -0.88       0.00       0.00      0.000
2:03am            336          0          0         40         82       74.5       51.8      29.33       51.8        546       1328        217      -0.96       0.00       0.00      0.000
2:04am            336          0          0         40         82       74.5       51.8      29.33       51.8        546       1328        217      -0.94       0.00       0.00      0.000
2:05am            336          0          0         40         82       74.5       51.8      29.33       51.8        546       1328        217      -0.93       0.00       0.00      0.000
2:06am            336          0          0         40         82       74.5       51.8      29.33       51.8        547       1328        218      -0.91       0.00       0.00      0.000
2:07am            336          0          0         40         82       74.5       51.8      29.33       51.8        548       1328        219      -0.90       0.00       0.00      0.000
2:08am            336          0          0         40         82       74.5       51.7      29.33       51.7        548       1327        213      -0.98       0.00       0.00      0.000
2:09am            336          0          0         40         82       74.5       51.7      29.33       51.7        549       1327        215      -0.97       0.00       0.00      0.000
2:10am            336          0          0         40         82       74.5       51.7      29.33       51.7        549       1327        215      -0.95       0.00       0.00      0.000
2:11am            336          0          0         40         82       74.5       51.6      29.33       51.6        549       1327        208      -1.03       0.00       0.00      0.000
2:12am            336          0          1         40         82       74.5       51.6      29.33       51.6        548       1327        207      -1.02       0.00       0.00      0.000
2:13am            336          0          1         40         82       74.5       51.6      29.33       51.6        548       1327        207      -1.00       0.00       0.00      0.000
2:14am            336          0          1         40         83       74.5       51.6      29.33       51.6        548       1246        207      -0.98       0.00       0.00      0.000
2:15am            336          0          1         40         83       74.5       51.5      29.33       51.5        548       1246        200      -1.06       0.00       0.00      0.000
2:16am            336          0          0         40         83       74.5       51.5      29.33       51.5        548       1246        200      -1.05       0.00       0.00      0.000
2:17am            336          0          0         40         83       74.5       51.4      29.33       51.4        549       1245        195      -1.13       0.00       0.00      0.000
2:18am            336          0          0         40         83       74.5       51.4      29.33       51.4        549       1245        195      -1.11       0.00       0.00      0.000
2:19am            336          0          0         40         83       74.5       51.4      29.33       51.4        549       1245        195      -1.09       0.00       0.00      0.000
2:20am            336          0          0         40         83       74.5       51.4      29.33       51.4        550       1245        196      -1.07       0.00       0.00      0.000
2:21am            336          0          0         40         83       74.5       51.3      29.33       51.3        549       1245        188      -1.15       0.00       0.00      0.000
2:22am            336          0          0         40         83       74.5       51.3      29.33       51.3        548       1245        187      -1.14       0.00       0.00      0.000
2:23am            336          0          0         40         83       74.5       51.3      29.33       51.3        549       1245        188      -1.12       0.00       0.00      0.000
2:24am            336          0          0         40         83       74.5       51.2      29.33       51.2        549       1244        181      -1.20       0.00       0.00      0.000
2:25am            336          0          0         40         83       74.5       51.2      29.33       51.2        550       1244        182      -1.18       0.00       0.00      0.000
2:26am            335          0          2         40         83       74.5       51.2      29.33       51.2        549       1244        181      -1.16       0.00       0.00      0.000
2:27am            335          0          2         40         83       74.5       51.2      29.33       51.2        549       1244        181      -1.14       0.00       0.00      0.000
2:28am            335          0          2         40         83       74.5       51.2      29.33       51.2        549       1244        181      -1.12       0.00       0.00      0.000
2:29am            335          0          2         40         83       74.5       51.2      29.33       51.2        550       1244        182      -1.10       0.00       0.00      0.000
2:30am            335          0          2         40         83       74.5       51.1      29.33       51.1        550       1244        176      -1.18       0.00       0.00      0.000
2:31am            335          1          2         40         83       74.5       51.1      29.33       51.1        549       1244        175      -1.16       0.00       0.00      0.000
2:32am            335          1          2         40         83       74.5       51.1      29.33       51.1        549       1244        175      -1.14       0.00       0.00      0.000
2:33am            335          0          2         40         83       74.5       51.1      29.33       51.1        551       1244        177      -1.13       0.00       0.00      0.000
2:34am            335          0          2         40         84       74.5       51.0      29.33       51.0        551       1164        170      -1.21       0.00       0.00      0.000
2:35am            335          0          2         40         83       74.5       51.1      29.33       51.1        551       1244        177      -1.09       0.00       0.00      0.000
2:36am            335          0          1         40         84       74.5       51.0      29.33       51.0        552       1164        171      -1.17       0.00       0.00      0.000
2:37am            335          0          1         40         84       74.5       51.0      29.33       51.0        551       1164        170      -1.15       0.00       0.00      0.000
2:38am            335          0          1         40         84       74.5       51.0      29.33       51.0        552       1164        171      -1.13       0.00       0.00      0.000
2:39am            335          0          1         40         84       74.5       51.0      29.33       51.0        551       1164        170      -1.11       0.00       0.00      0.000
2:40am            335          0          1         40         84       74.5       51.0      29.33       51.0        553       1164        172      -1.09       0.00       0.00      0.000
2:41am            335          0          0         40         84       74.5       51.0      29.33       51.0        554       1164        174      -1.08       0.00       0.00      0.000
2:42am            335          0          0         40         84       74.5       51.0      29.32       51.0        556       1164        176      -1.06       0.00       0.00      0.000
2:43am            335          0          0         40         85       74.5       51.0      29.32       51.0        558       1086        178      -1.04       0.00       0.00      0.000
2:44am            335          0          0         40         84       74.5       51.0      29.32       51.0        559       1164        179      -1.02       0.00       0.00      0.000
2:45am            335          0          0         40         84       74.5       51.0      29.32       51.0        560       1164        180      -1.01       0.00       0.00      0.000
2:46am            335          0          0         40         85       74.5       50.9      29.32       50.9        559       1085        173      -1.09       0.00       0.00      0.000
2:47am            335          0          0         40         85       74.5       50.9      29.32       50.9        558       1085        171      -1.07       0.00       0.00      0.000
2:48am            335          0          0         40         85       74.5       50.9      29.32       50.9        558       1085        171      -1.05       0.00       0.00      0.000
2:49am            335          0          0         40         85       74.5       50.9      29.32       50.9        558       1085        171      -1.04       0.00       0.00      0.000
2:50am            335          0          0         40         85       74.5       50.9      29.32       50.9        559       1085        173      -1.02       0.00       0.00      0.000
2:51am            335          0          0         40         85       74.5       50.9      29.32       50.9        559       1085        173      -1.00       0.00       0.00      0.000
2:52am             30          0          0         40         85       74.5       50.8      29.32       50.8        559       1085        166      -1.09       0.00       0.00      0.000
2:53am             30          0          0         40         85       74.5       50.9      29.32       50.9        560       1085        174      -0.97       0.00       0.00      0.000
2:54am             30          0          0         40         85       74.5       50.8      29.32       50.8        560       1085        167      -1.05       0.00       0.00      0.000
2:55am             30          0          0         40         85       74.5       50.9      29.32       50.9        560       1085        175      -0.94       0.00       0.00      0.000
2:56am             30          0          0         40         85       74.5       50.9      29.32       50.9        560       1085        175      -0.92       0.00       0.00      0.000
2:57am            201          2          3         40         85       74.5       50.9      29.32       50.9        560       1085        175      -0.91       0.00       0.00      0.000
2:58am            350          1          4         40         85       74.5       50.8      29.32       50.8        560       1085        168      -0.99       0.00       0.00      0.000
2:59am            350          0          4         40         85       74.5       50.8      29.32       50.8        560       1085        168      -0.97       0.00       0.00      0.000
3:00am            350          0          4         40         85       74.5       50.9      29.32       50.9        560       1085        175      -0.86       0.00       0.00      0.000
3:01am            350          0          1         40         84       74.7       50.8      29.32       50.8        560       1163        168      -0.94       0.00       0.00      0.000
3:02am            350          0          1         40         84       74.5       50.8      29.32       50.8        560       1163        168      -0.93       0.00       0.00      0.000
3:03am            350          0          1         40         85       74.5       50.9      29.32       50.9        561       1085        176      -0.81       0.00       0.00      0.000
3:04am            350          1          3         40         84       74.5       50.9      29.32       50.9        562       1164        177      -0.80       0.00       0.00      0.000
3:05am            350          0          3         40         84       74.5       50.9      29.32       50.9        562       1164        177      -0.78       0.00       0.00      0.000
3:06am            350          1          1         40         84       74.7       50.8      29.32       50.8        563       1163        172      -0.87       0.00       0.00      0.000
3:07am            350          0          3         40         84       74.5       50.8      29.32       50.8        563       1163        172      -0.86       0.00       0.00      0.000
3:08am            350          1          3         40         84       74.7       50.9      29.32       50.9        563       1164        178      -0.74       0.00       0.00      0.000
3:09am             95          1          3         40         84       74.7       50.8      29.32       50.8        563       1163        172      -0.83       0.00       0.00      0.000
3:10am             95          1          3         40         84       74.7       50.9      29.32       50.9        562       1164        177      -0.72       0.00       0.00      0.000
3:11am             95          0          1         40         84       74.7       51.0      29.32       51.0        562       1164        184      -0.61       0.00       0.00      0.000
3:12am             95          0          1         40         84       74.7       50.9      29.32       50.9        562       1164        177      -0.69       0.00       0.00      0.000
3:13am             95          1          1         40         84       74.7       50.9      29.32       50.9        562       1164        177      -0.68       0.00       0.00      0.000
3:14am             95          0          1         40         84       74.7       51.0      29.32       51.0        563       1164        185      -0.57       0.00       0.00      0.000
3:15am             18          0          1         40         84       74.7       51.0      29.32       51.0        563       1164        185      -0.56       0.00       0.00      0.000
3:16am             23          2          2         40         84       74.7       51.0      29.32       51.0        563       1164        185      -0.55       0.00       0.00      0.000
3:17am             23          0          2         40         84       74.7       51.0      29.32       51.0        563       1164        185      -0.54       0.00       0.00      0.000
3:18am             23          1          2         40         84       74.7       51.0      29.32       51.0        563       1164        185      -0.54       0.00       0.00      0.000
3:19am             23          0          2         40         84       74.7       51.0      29.32       51.0        564       1164        186      -0.53       0.00       0.00      0.000
3:20am             23          1          2         40         84       74.7       51.0      29.32       51.0        564       1164        186      -0.52       0.00       0.00      0.000
3:21am             75          1          2         40         84       74.7       51.0      29.31       51.0        565       1164        187      -0.51       0.00       0.00      0.000
3:22am             75          0          2         40         84       74.7       51.0      29.32       51.0        564       1164        186      -0.50       0.00       0.00      0.000
3:23am            310          2          3         40         84       74.5       51.0      29.32       51.0        564       1164        186      -0.49       0.00       0.00      0.000
3:24am            315          0          3         40         84       74.5       51.0      29.32       51.0        564       1164        186      -0.48       0.00       0.00      0.000
3:25am            315          0          3         40         83       74.5       51.0      29.31       51.0        565       1243        187      -0.48       0.00       0.00      0.000
3:26am            315          0          1         40         83       74.7       51.0      29.31       51.0        565       1243        187      -0.47       0.00       0.00      0.000
3:27am            315          0          1         40         83       74.7       51.0      29.31       51.0        565       1243        187      -0.46       0.00       0.00      0.000
3:28am             85          1          3         40         83       74.7       51.0      29.31       51.0        565       1243        187      -0.45       0.00       0.00      0.000
3:29am             50          3          3         40         83       74.7       51.0      29.31       50.8        567       1243        190      -0.44       0.00       0.00      0.000
3:30am             49          1          3         40         83       74.7       50.9      29.31       50.9        567       1243        183      -0.54       0.00       0.00      0.000
3:31am             49          0          1         40         83       74.7       51.0      29.31       51.0        567       1243        190      -0.43       0.00       0.00      0.000
3:32am             52          3          3         40         83       74.7       51.0      29.31       50.8        566       1243        188      -0.42       0.00       0.00      0.000
3:33am             52          0          3         40         83       74.7       50.9      29.31       50.9        566       1243        182      -0.52       0.00       0.00      0.000
3:34am             52          0          3         40         83       74.7       50.8      29.31       50.8        566       1242        175      -0.61       0.00       0.00      0.000
3:35am             51          0          3         40         83       74.7       51.0      29.31       51.0        565       1243        187      -0.40       0.00       0.00      0.000
3:36am             51          0          0         40         83       74.7       50.8      29.32       50.8        564       1242        173      -0.59       0.00       0.00      0.000
3:37am             51          0          0         40         83       74.7       50.8      29.32       50.8        564       1242        173      -0.58       0.00       0.00      0.000
3:38am             51          0          0         40         83       74.7       50.8      29.32       50.8        563       1242        172      -0.57       0.00       0.00      0.000
3:39am             51          0          0         40         83       74.7       50.8      29.32       50.8        563       1242        172      -0.56       0.00       0.00      0.000
3:40am             51          0          0         40         83       74.7       50.8      29.32       50.8        563       1242        172      -0.55       0.00       0.00      0.000
3:41am             54          0          0         40         83       74.7       50.7      29.32       50.7        563       1242        165      -0.64       0.00       0.00      0.000
3:42am             54          0          0         40         83       74.7       50.7      29.32       50.7        563       1242        165      -0.63       0.00       0.00      0.000
3:43am             54          0          0         40         83       74.7       50.6      29.32       50.6        563       1241        158      -0.72       0.00       0.00      0.000
3:44am             54          0          0         40         83       74.7       50.6      29.32       50.6        562       1241        157      -0.71       0.00       0.00      0.000
3:45am             54          0          0         40         83       74.7       50.6      29.32       50.6        562       1241        157      -0.70       0.00       0.00      0.000
3:46am             54          0          0         40         83       74.7       50.5      29.32       50.5        562       1241        150      -0.78       0.00       0.00      0.000
3:47am             54          0          0         40         83       74.7       50.5      29.32       50.5        562       1241        150      -0.77       0.00       0.00      0.000
3:48am             54          0          0         40         83       74.7       50.5      29.32       50.5        562       1241        150      -0.76       0.00       0.00      0.000
3:49am             54          0          0         40         83       74.7       50.5      29.32       50.5        561       1241        149      -0.75       0.00       0.00      0.000
3:50am             54          0          0         40         83       74.7       50.5      29.32       50.5        561       1241        149      -0.73       0.00       0.00      0.000
3:51am             54          0          0         40         83       74.7       50.5      29.32       50.5        561       1241        149      -0.72       0.00       0.00      0.000
3:52am             54          0          0         40         84       74.7       50.4      29.32       50.4        561       1161        143      -0.81       0.00       0.00      0.000
3:53am             47          1          2         40         84       74.7       50.4      29.32       50.4        561       1161        143      -0.80       0.00       0.00      0.000
3:54am             47          0          2         40         84       74.7       50.4      29.32       50.4        561       1161        143      -0.78       0.00       0.00      0.000
3:55am             47          0          2         40         84       74.7       50.3      29.32       50.3        561       1161        136      -0.87       0.00       0.00      0.000
3:56am             54          1          1         40         84       74.7       50.3      29.32       50.3        561       1161        136      -0.85       0.00       0.00      0.000
3:57am             52          0          3         40         84       74.7       50.3      29.32       50.3        561       1161        136      -0.84       0.00       0.00      0.000
3:58am             52          0          3         40         84       74.7       50.3      29.32       50.3        561       1161        136      -0.83       0.00       0.00      0.000
3:59am             52          2          3         40         84       74.7       50.2      29.32       50.2        560       1160        128      -0.91       0.00       0.00      0.000
4:00am             52          2          3         40         84       74.7       50.2      29.32       50.2        560       1160        127      -0.89       0.00       0.00      0.000
4:01am            260          2          3         40         84       74.7       50.2      29.32       50.2        559       1160        126      -0.88       0.00       0.00      0.000
4:02am            260          1          3         40         84       74.7       50.1      29.32       50.1        557       1160        117      -0.97       0.00       0.00      0.000
4:03am            259          0          3         40         84       74.7       50.2      29.32       50.2        558       1160        125      -0.85       0.00       0.00      0.000
4:04am            260          2          3         40         84       74.7       50.2      29.32       50.2        558       1160        125      -0.84       0.00       0.00      0.000
4:05am            260          2          3         40         83       74.7       50.1      29.32       50.1        557       1238        117      -0.92       0.00       0.00      0.000
4:06am            260          0          2         40         83       74.7       50.1      29.32       50.1        556       1238        116      -0.90       0.00       0.00      0.000
4:07am            245          4          4         40         83       74.7       50.1      29.32       49.0        556       1238        116      -0.89       0.00       0.00      0.000
4:08am            331          1          5         40         83       74.7       50.1      29.32       50.1        555       1238        115      -0.88       0.00       0.00      0.000
4:09am            348          3          5         40         83       74.7       50.1      29.32       49.8        556       1238        116      -0.86       0.00       0.00      0.000
4:10am            348          1          5         40         82       74.7       50.1      29.32       50.1        555       1318        115      -0.85       0.00       0.00      0.000
4:11am            333          3          3         40         82       74.7       50.1      29.33       49.8        554       1318        113      -0.83       0.00       0.00      0.000
4:12am            347          1          4         40         82       74.7       50.1      29.32       50.1        555       1318        115      -0.82       0.00       0.00      0.000
4:13am            347          0          4         40         82       74.7       50.1      29.32       50.1        557       1318        117      -0.81       0.00       0.00      0.000
4:14am            347          0          4         40         82       74.7       50.2      29.32       50.2        558       1319        125      -0.69       0.00       0.00      0.000
4:15am            347          0          4         40         82       74.7       50.2      29.32       50.2        557       1319        124      -0.68       0.00       0.00      0.000
4:16am            347          0          0         40         82       74.7       50.2      29.32       50.2        557       1319        124      -0.67       0.00       0.00      0.000
4:17am            347          2          2         40         82       74.7       50.2      29.32       50.2        555       1319        121      -0.66       0.00       0.00      0.000
4:18am            347          1          2         40         82       74.7       50.2      29.33       50.2        554       1319        120      -0.65       0.00       0.00      0.000
4:19am            266          2          3         40         82       74.7       50.2      29.33       50.2        554       1319        120      -0.64       0.00       0.00      0.000
4:20am            266          0          3         41         82       74.7       50.2      29.33       50.2        554       1319        120      -0.63       0.00       0.00      0.000
4:21am            266          2          2         40         83       74.7       50.2      29.33       50.2        553       1239        119      -0.62       0.00       0.00      0.000
4:22am            266          0          2         40         82       74.7       50.2      29.33       50.2        553       1319        119      -0.61       0.00       0.00      0.000
4:23am              8          2          4         40         82       74.7       50.2      29.33       50.2        551       1319        117      -0.60       0.00       0.00      0.000
4:24am            300          2          6         40         82       74.7       50.2      29.33       50.2        551       1319        117      -0.59       0.00       0.00      0.000
4:25am            355          1          6         40         81       74.7       50.2      29.33       50.2        550       1399        116      -0.58       0.00       0.00      0.000
4:26am            355          1          2         40         81       74.7       50.2      29.33       50.2        550       1399        116      -0.57       0.00       0.00      0.000
4:27am            355          1          2         40         81       74.7       50.2      29.33       50.2        550       1399        116      -0.56       0.00       0.00      0.000
4:28am            347          0          3         40         81       74.7       50.2      29.33       50.2        550       1399        116      -0.55       0.00       0.00      0.000
4:29am            347          1          3         40         81       74.7       50.2      29.33       50.2        548       1399        113      -0.54       0.00       0.00      0.000
4:30am            347          2          3         40         81       74.7       50.2      29.33       50.2        548       1399        112      -0.53       0.00       0.00      0.000
4:31am            285          1          3         40         81       74.7       50.1      29.33       50.1        548       1398        105      -0.62       0.00       0.00      0.000
4:32am            289          2          3         40         80       74.7       50.1      29.33       50.1        548       1480        105      -0.61       0.00       0.00      0.000
4:33am             55          0          3         40         80       74.7       50.1      29.33       50.1        548       1480        105      -0.60       0.00       0.00      0.000
4:34am             55          2          3         40         80       74.7       50.1      29.33       50.1        547       1480        104      -0.59       0.00       0.00      0.000
4:35am             55          2          3         40         79       74.7       50.1      29.33       50.1        547       1562        104      -0.58       0.00       0.00      0.000
4:36am             55          0          2         40         80       74.7       50.1      29.33       50.1        547       1480        104      -0.57       0.00       0.00      0.000
4:37am             55          1          2         40         80       74.7       50.1      29.33       50.1        547       1480        104      -0.56       0.00       0.00      0.000
4:38am             73          0          2         40         79       74.7       50.1      29.33       50.1        547       1562        104      -0.56       0.00       0.00      0.000
4:39am             23          3          4         40         79       74.7       50.1      29.33       49.8        547       1562        104      -0.55       0.00       0.00      0.000
4:40am            316          4          4         40         79       74.7       50.1      29.33       49.0        547       1562        104      -0.54       0.00       0.00      0.000
4:41am            291          1          4         40         78       74.7       50.1      29.33       50.1        546       1645        103      -0.53       0.00       0.00      0.000
4:42am            292          1          4         40         78       74.7       50.1      29.33       50.1        546       1645        103      -0.52       0.00       0.00      0.000
4:43am            316          2          7         40         77       74.7       50.1      29.33       50.1        546       1730        103      -0.51       0.00       0.00      0.000
4:44am             41          1          7         40         77       74.7       50.0      29.34       50.0        545       1729         95      -0.60       0.00       0.00      0.000
4:45am             41          1          7         40         76       74.7       50.0      29.34       50.0        545       1814         95      -0.59       0.00       0.00      0.000
4:46am             41          2          3         40         76       74.7       50.1      29.34       50.1        545       1815        102      -0.48       0.00       0.00      0.000
4:47am            310          3          5         40         76       74.7       50.1      29.33       49.8        546       1815        103      -0.48       0.00       0.00      0.000
4:48am            310          1          5         40         77       74.7       50.1      29.34       50.1        545       1730        102      -0.47       0.00       0.00      0.000
4:49am            310          3          5         39         77       74.5       50.1      29.34       49.8        544       1730        101      -0.46       0.00       0.00      0.000
4:50am            310          5          7         40         77       74.5       50.1      29.33       48.3        546       1730        103      -0.45       0.00       0.00      0.000
4:51am            310          2          5         39         78       74.5       50.1      29.34       50.1        544       1645        101      -0.45       0.00       0.00      0.000
4:52am             36          1          5         40         77       74.5       50.1      29.34       50.1        544       1730        101      -0.44       0.00       0.00      0.000
4:53am             34          1          5         40         78       74.5       50.1      29.34       50.1        543       1645        100      -0.43       0.00       0.00      0.000
4:54am             34          1          5         39         78       74.5       50.1      29.34       50.1        545       1645        102      -0.42       0.00       0.00      0.000
4:55am             34          0          5         40         78       74.5       50.1      29.34       50.1        545       1645        102      -0.42       0.00       0.00      0.000
4:56am            333          2          3         40         78       74.5       50.1      29.33       50.1        546       1645        103      -0.41       0.00       0.00      0.000
4:57am            333          1          3         40         78       74.5       50.1      29.33       50.1        546       1645        103      -0.40       0.00       0.00      0.000
4:58am            333          0          3         40         78       74.5       50.0      29.33       50.0        546       1645         96      -0.50       0.00       0.00      0.000
4:59am            333          0          3         40         77       74.5       50.0      29.33       50.0        546       1729         96      -0.49       0.00       0.00      0.000
5:00am            333          0          3         40         77       74.5       50.0      29.33       50.0        546       1729         96      -0.48       0.00       0.00      0.000
5:01am            341          1          4         40         78       74.7       49.9      29.33       49.9        546       1644         90      -0.57       0.00       0.00      0.000
5:02am            270          4          4         40         76       74.5       49.9      29.33       48.8        547       1813         91      -0.56       0.00       0.00      0.000
5:03am            300          3          4         39         76       74.5       49.9      29.33       49.6        547       1813         91      -0.55       0.00       0.00      0.000
5:04am            229          2          4         40         75       74.5       49.8      29.33       49.8        546       1898         83      -0.64       0.00       0.00      0.000
5:05am             10          1          4         40         75       74.5       49.7      29.33       49.7        546       1898         76      -0.73       0.00       0.00      0.000
5:06am             10          0          1         40         75       74.5       49.8      29.33       49.8        546       1898         83      -0.62       0.00       0.00      0.000
5:07am            310          3          4         40         76       74.5       49.8      29.33       49.5        546       1812         83      -0.61       0.00       0.00      0.000
5:08am            256          2          8         40         75       74.5       49.7      29.33       49.7        547       1898         77      -0.70       0.00       0.00      0.000
5:09am            287          2          8         40         75       74.5       49.7      29.33       49.7        547       1898         77      -0.69       0.00       0.00      0.000
5:10am            287          1          8         39         75       74.5       49.7      29.33       49.7        547       1898         77      -0.67       0.00       0.00      0.000
5:11am             16          0          2         40         75       74.5       49.6      29.33       49.6        547       1897         71      -0.76       0.00       0.00      0.000
5:12am            237          2          3         39         75       74.5       49.6      29.33       49.6        547       1897         71      -0.75       0.00       0.00      0.000
5:13am            116          2          3         40         75       74.5       49.6      29.33       49.6        547       1897         71      -0.74       0.00       0.00      0.000
5:14am            116          3          3         40         75       74.5       49.5      29.33       49.1        547       1896         64      -0.82       0.00       0.00      0.000
5:15am            300          4          5         40         76       74.5       49.6      29.33       48.4        547       1811         71      -0.71       0.00       0.00      0.000
5:16am            310          3          6         39         76       74.5       49.4      29.33       49.0        547       1809         57      -0.90       0.00       0.00      0.000
5:17am            310          2          6         40         75       74.5       49.4      29.33       49.4        546       1895         56      -0.88       0.00       0.00      0.000
5:18am            327          0          6         40         75       74.5       49.4      29.33       49.4        547       1895         57      -0.87       0.00       0.00      0.000
5:19am            326          2          6         40         75       74.5       49.3      29.33       49.3        547       1894         51      -0.95       0.00       0.00      0.000
5:20am            259          0          6         40         74       74.5       49.3      29.33       49.3        547       1981         51      -0.94       0.00       0.00      0.000
5:21am            258          2          2         40         74       74.5       49.2      29.33       49.2        547       1980         44      -1.02       0.00       0.00      0.000
5:22am              1          7          7         40         74       74.5       49.2      29.33       46.2        547       1980         44      -1.00       0.00       0.00      0.000
5:23am              4          2          7         40         74       74.5       49.2      29.33       49.2        547       1980         44      -0.99       0.00       0.00      0.000
5:24am              6          1          7         40         75       74.5       49.1      29.33       49.1        547       1893         37      -1.07       0.00       0.00      0.000
5:25am             87          3          7         40         75       74.5       49.0      29.33       48.5        548       1892         32      -1.15       0.00       0.00      0.000
5:26am            360          3          4         40         75       74.5       49.0      29.33       48.5        548       1892         32      -1.13       0.00       0.00      0.000
5:27am            360          0          4         40         75       74.5       48.9      29.33       48.9        548       1891         25      -1.21       0.00       0.00      0.000
5:28am            351          1          4         40         75       74.5       48.9      29.33       48.9        548       1891         25      -1.19       0.00       0.00      0.000
5:29am            183          3          4         40         75       74.5       48.8      29.33       48.3        548       1890         18      -1.27       0.00       0.00      0.000
5:30am            258          4          4         40         75       74.5       48.8      29.33       47.5        548       1890         18      -1.25       0.00       0.00      0.000
5:31am            258          0          4         40         75       74.5       48.8      29.33       48.8        548       1890         18      -1.23       0.00       0.00      0.000
5:32am             13          2          4         40         75       74.5       48.7      29.33       48.7        548       1889         11      -1.31       0.00       0.00      0.000
5:33am            102          2          4         40         75       74.5       48.7      29.33       48.7        548       1889         11      -1.29       0.00       0.00      0.000
5:34am            102          2          4         40         75       74.5       48.7      29.33       48.7        548       1889         11      -1.27       0.00       0.00      0.000
5:35am            356          0          4         40         75       74.5       48.6      29.33       48.6        548       1888          5      -1.35       0.00       0.00      0.000
5:36am            225          2          4         40         75       74.5       48.6      29.33       48.6        548       1888          5      -1.32       0.00       0.00      0.000
5:37am            225          1          4         40         75       74.5       48.5      29.33       48.5        548       1888         -2      -1.40       0.00       0.00      0.000
5:38am            281          1          4         40         75       74.5       48.5      29.33       48.5        548       1888         -2      -1.38       0.00       0.00      0.000
5:39am            281          1          8         40         75       74.5       48.5      29.33       48.5        548       1888         -2      -1.35       0.00       0.00      0.000
5:40am            197          2          8         40         75       74.5       48.4      29.33       48.4        548       1887         -9      -1.43       0.00       0.00      0.000
5:41am            197          3          3         40         75       74.5       48.4      29.33       47.9        548       1887         -9      -1.41       0.00       0.00      0.000
5:42am            197          1          3         40         76       74.5       48.3      29.33       48.3        548       1800        -15      -1.48       0.00       0.00      0.000
5:43am            197          1          3         40         75       74.5       48.3      29.33       48.3        548       1886        -15      -1.46       0.00       0.00      0.000
5:44am            197          2          3         40         75       74.5       48.3      29.33       48.3        548       1886        -15      -1.44       0.00       0.00      0.000
5:45am            225          4          6         40         75       74.5       48.3      29.33       46.9        548       1886        -15      -1.41       0.00       0.00      0.000
5:46am            351          1          4         40         75       74.5       48.1      29.33       48.1        547       1884        -30      -1.59       0.00       0.00      0.000
5:47am            351          0          4         39         75       74.5       48.2      29.33       48.2        548       1885        -22      -1.46       0.00       0.00      0.000
5:48am            326          3          4         40         75       74.5       48.2      29.33       47.6        548       1885        -22      -1.44       0.00       0.00      0.000
5:49am             89          4          7         39         75       74.5       48.1      29.33       46.7        548       1884        -29      -1.51       0.00       0.00      0.000
5:50am            317          2          7         39         75       74.5       48.1      29.33       48.1        548       1884        -29      -1.49       0.00       0.00      0.000
5:51am             66          1          4         40         75       74.5       48.1      29.33       48.1        548       1884        -29      -1.46       0.00       0.00      0.000
5:52am            108          2          4         40         75       74.5       48.1      29.33       48.1        548       1884        -29      -1.44       0.00       0.00      0.000
5:53am            310          1          8         39         76       74.5       48.1      29.33       48.1        548       1799        -29      -1.41       0.00       0.00      0.000
5:54am            241          1          8         40         76       74.5       48.0      29.33       48.0        548       1798        -36      -1.49       0.00       0.00      0.000
5:55am             13          2          8         40         76       74.5       48.0      29.33       48.0        547       1798        -37      -1.47       0.00       0.00      0.000
5:56am             14          5          5         39         76       74.5       48.0      29.33       45.9        547       1798        -37      -1.44       0.00       0.00      0.000
5:57am              9          4          5         39         76       74.5       47.9      29.33       46.4        548       1797        -42      -1.52       0.00       0.00      0.000
5:58am             64          2          5         40         75       74.5       48.0      29.33       48.0        547       1883        -37      -1.39       0.00       0.00      0.000
5:59am            333          2          5         40         75       74.5       48.0      29.33       48.0        547       1883        -37      -1.37       0.00       0.00      0.000
6:00am            187          3          5         40         76       74.5       47.9      29.33       47.3        547       1797        -43      -1.45       0.00       0.00      0.000
6:01am            310          2          3         40         76       74.5       47.9      29.33       47.9        547       1797        -43      -1.42       0.00       0.00      0.000
6:02am            310          1          3         39         76       74.5       47.8      29.33       47.8        547       1797        -50      -1.50       0.00       0.00      0.000
6:03am            124          4          4         40         76       74.5       47.8      29.33       46.3        548       1797        -48      -1.47       0.00       0.00      0.000
6:04am              6          0          4         40         76       74.5       47.8      29.33       47.8        548       1797        -49      -1.45       0.00       0.00      0.000
6:05am              6          0          4         39         76       74.5       47.8      29.33       47.8        548       1797        -49      -1.42       0.00       0.00      0.000
6:06am             95          2          4         39         76       74.5       47.8      29.33       47.8        548       1797        -49      -1.40       0.00       0.00      0.000
6:07am            236          1          4         39         76       74.5       47.7      29.33       47.7        547       1796        -57      -1.48       0.00       0.00      0.000
6:08am            289          3          4         40         76       74.5       47.7      29.33       47.1        547       1796        -57      -1.45       0.00       0.00      0.000
6:09am              6          1          4         39         77       74.5       47.7      29.34       47.7        545       1711        -59      -1.43       0.00       0.00      0.000
6:10am              5          1          4         39         77       74.5       47.7      29.34       47.7        544       1711        -60      -1.41       0.00       0.00      0.000
6:11am              5          2          3         39         77       74.5       47.6      29.34       47.6        542       1711        -69      -1.48       0.00       0.00      0.000
6:12am            310          2          4         39         77       74.5       47.6      29.34       47.6        543       1711        -68      -1.46       0.00       0.00      0.000
6:13am             56          1          4         39         77       74.5       47.6      29.34       47.6        544       1711        -67      -1.43       0.00       0.00      0.000
6:14am            340          5          5         40         78       74.5       47.5      29.34       45.3        544       1627        -74      -1.51       0.00       0.00      0.000
6:15am            340          2          5         39         77       74.5       47.5      29.34       47.5        540       1710        -78      -1.48       0.00       0.00      0.000
6:16am            287          1          3         40         77       74.5       47.5      29.34       47.5        540       1710        -78      -1.46       0.00       0.00      0.000
6:17am            288          0          3         39         77       74.5       47.4      29.34       47.4        537       1709        -89      -1.53       0.00       0.00      0.000
6:18am            347          3          3         39         77       74.5       47.4      29.34       46.7        537       1709        -89      -1.51       0.00       0.00      0.000
6:19am            347          0          3         39         77       74.5       47.4      29.34       47.4        538       1709        -87      -1.48       0.00       0.00      0.000
6:20am            347          0          3         40         76       74.5       47.3      29.34       47.3        539       1793        -93      -1.56       0.00       0.00      0.000
6:21am            347          0          0         40         77       74.5       47.3      29.34       47.3        539       1708        -93      -1.53       0.00       0.00      0.000
6:22am            293          1          7         40         77       74.5       47.3      29.34       47.3        539       1708        -93      -1.50       0.00       0.00      0.000
6:23am            295          0          7         39         77       74.5       47.2      29.34       47.2        537       1708       -102      -1.58       0.00       0.00      0.000
6:24am            300          0          7         39         77       74.5       47.3      29.35       47.3        536       1708        -98      -1.45       0.00       0.00      0.000
6:25am            300          0          7         39         77       74.5       47.2      29.35       47.2        534       1708       -107      -1.53       0.00       0.00      0.000
6:26am            179          5          6         39         78       74.5       47.2      29.35       44.9        534       1625       -107      -1.50       0.00       0.00      0.000
6:27am            267          1          6         39         77       74.5       47.2      29.35       47.2        534       1708       -107      -1.48       0.00       0.00      0.000
6:28am            266          2          6         39         77       74.5       47.2      29.35       47.2        533       1708       -108      -1.45       0.00       0.00      0.000
6:29am            310          1          6         39         77       74.5       47.1      29.35       47.1        533       1707       -115      -1.53       0.00       0.00      0.000
6:30am            254          2          6         40         77       74.5       47.1      29.35       47.1        533       1707       -115      -1.50       0.00       0.00      0.000
6:31am            328          3          5         40         77       74.5       47.1      29.35       46.4        533       1707       -115      -1.48       0.00       0.00      0.000
6:32am            338          4          7         39         76       74.5       47.0      29.35       45.4        533       1790       -121      -1.56       0.00       0.00      0.000
6:33am             66          1          7         40         76       74.5       47.0      29.35       47.0        533       1790       -121      -1.53       0.00       0.00      0.000
6:34am             66          1          7         39         76       74.5       47.1      29.35       47.1        533       1791       -115      -1.40       0.00       0.00      0.000
6:35am             66          0          7         39         77       74.5       47.1      29.35       47.1        533       1707       -115      -1.38       0.00       0.00      0.000
6:36am            327          3          4         40         77       74.5       47.1      29.35       46.4        533       1707       -115      -1.36       0.00       0.00      0.000
6:37am             88          2          4         40         77       74.5       47.0      29.35       47.0        532       1706       -122      -1.44       0.00       0.00      0.000
6:38am            335          2          4         39         77       74.5       47.1      29.35       47.1        532       1707       -116      -1.31       0.00       0.00      0.000
6:39am             15          2          4         39         77       74.5       47.0      29.35       47.0        532       1706       -122      -1.38       0.00       0.00      0.000
6:40am             15          2          4         39         77       74.5       47.1      29.35       47.1        532       1707       -116      -1.27       0.00       0.00      0.000
6:41am              6          1          6         39         77       74.5       47.1      29.35       47.1        531       1707       -117      -1.25       0.00       0.00      0.000
6:42am             21          1          6         39         77       74.5       47.1      29.35       47.1        530       1707       -118      -1.23       0.00       0.00      0.000
6:43am             41          2          6         39         77       74.5       47.1      29.35       47.1        528       1707       -120      -1.21       0.00       0.00      0.000
6:44am             69          1          6         39         78       74.5       47.0      29.35       47.0        529       1623       -126      -1.29       0.00       0.00      0.000
6:45am            331          1          6         39         77       74.5       47.1      29.35       47.1        527       1707       -121      -1.17       0.00       0.00      0.000
6:46am            300          2          4         39         78       74.5       47.1      29.36       47.1        526       1624       -123      -1.15       0.00       0.00      0.000
6:47am            300          0          4         41         78       74.5       47.1      29.36       47.1        526       1624       -123      -1.13       0.00       0.00      0.000
6:48am            300          1          4         39         78       74.5       47.1      29.36       47.1        525       1624       -124      -1.11       0.00       0.00      0.000
6:49am            305          1          4         39         78       74.5       47.1      29.36       47.1        524       1624       -125      -1.09       0.00       0.00      0.000
6:50am            305          2          4         39         78       74.5       47.1      29.36       47.1        524       1624       -125      -1.07       0.00       0.00      0.000
6:51am            335          4          9         40         78       74.5       47.1      29.36       45.5        524       1624       -125      -1.05       0.00       0.00      0.000
6:52am            335          2          9         39         77       74.5       47.1      29.36       47.1        524       1707       -125      -1.03       0.00       0.00      0.000
6:53am            335          1          9         39         78       74.3       47.1      29.36       47.1        522       1624       -128      -1.02       0.00       0.00      0.000
6:54am            160          2          9         39         78       74.3       47.1      29.36       47.1        522       1624       -128      -1.00       0.00       0.00      0.000
6:55am            160          2          9         39         78       74.3       47.1      29.36       47.1        521       1624       -129      -0.98       0.00       0.00      0.000
6:56am             48          2          3         39         78       74.3       47.2      29.36       47.2        520       1625       -124      -0.87       0.00       0.00      0.000
6:57am             26          2          5         39         78       74.3       47.1      29.36       47.1        521       1624       -129      -0.95       0.00       0.00      0.000
6:58am            300          1          5         39         78       74.3       47.2      29.36       47.2        520       1625       -124      -0.84       0.00       0.00      0.000
6:59am            300          2          5         40         78       74.3       47.2      29.36       47.2        520       1625       -124      -0.82       0.00       0.00      0.000
7:00am            328          3          5         39         78       74.3       47.2      29.36       46.5        520       1625       -124      -0.81       0.00       0.00      0.000
7:01am            327          2          4         39         78       74.5       47.2      29.36       47.2        519       1625       -125      -0.80       0.00       0.00      0.000
7:02am            358          0          4         40         78       74.3       47.2      29.36       47.2        520       1625       -124      -0.78       0.00       0.00      0.000
7:03am            355          1          5         39         78       74.3       47.2      29.36       47.2        519       1625       -125      -0.77       0.00       0.00      0.000
7:04am             29          3          5         39         78       74.3       47.2      29.36       46.5        520       1625       -124      -0.76       0.00       0.00      0.000
7:05am             58          1          5         39         78       74.3       47.2      29.36       47.2        520       1625       -124      -0.75       0.00       0.00      0.000
7:06am            158          3          4         39         78       74.3       47.2      29.36       46.5        521       1625       -123      -0.73       0.00       0.00      0.000
7:07am             82          2          4         39         78       74.3       47.2      29.36       47.2        521       1625       -123      -0.72       0.00       0.00      0.000
7:08am             33          1          4         39         78       74.3       47.2      29.36       47.2        523       1625       -120      -0.71       0.00       0.00      0.000
7:09am             33          0          4         39         78       74.3       47.2      29.36       47.2        522       1625       -122      -0.70       0.00       0.00      0.000
7:10am              5          3          4         39         78       74.3       47.2      29.36       46.5        523       1625       -120      -0.69       0.00       0.00      0.000
7:11am            300          2          5         39         78       74.3       47.2      29.36       47.2        524       1625       -119      -0.68       0.00       0.00      0.000
7:12am            320          5          5         39         78       74.3       47.2      29.36       44.9        526       1625       -116      -0.67       0.00       0.00      0.000
7:13am            346          1          5         39         78       74.3       47.3      29.36       47.3        523       1625       -114      -0.56       0.00       0.00      0.000
7:14am             19          4          5         39         78       74.3       47.3      29.36       45.8        521       1625       -116      -0.54       0.00       0.00      0.000
7:15am            345          3          5         39         77       74.3       47.2      29.36       46.5        520       1708       -124      -0.63       0.00       0.00      0.000
7:16am            343          1          3         39         77       74.3       47.2      29.36       47.2        520       1708       -124      -0.62       0.00       0.00      0.000
7:17am            213          0          3         39         78       74.3       47.2      29.36       47.2        520       1625       -124      -0.61       0.00       0.00      0.000
7:18am            351          2          3         39         78       74.3       47.2      29.36       47.2        520       1625       -124      -0.60       0.00       0.00      0.000
7:19am            339          3          4         39         78       74.3       47.3      29.36       46.6        519       1625       -118      -0.49       0.00       0.00      0.000
7:20am            333          4          4         39         78       74.3       47.3      29.36       45.8        519       1625       -118      -0.49       0.00       0.00      0.000
7:21am            274          2          6         40         78       74.3       47.3      29.36       47.3        519       1625       -118      -0.48       0.00       0.00      0.000
7:22am            228          3          6         39         78       74.3       47.3      29.36       46.6        519       1625       -118      -0.47       0.00       0.00      0.000
7:23am            328          3          7         39         78       74.3       47.3      29.36       46.6        519       1625       -118      -0.46       0.00       0.00      0.000
7:24am             69          2          7         39         78       74.3       47.3      29.36       47.3        519       1625       -118      -0.45       0.00       0.00      0.000
7:25am             68          3          7         39         79       74.3       47.3      29.36       46.6        518       1543       -119      -0.45       0.00       0.00      0.000
7:26am             43          9          9         39         78       74.3       47.3      29.36       43.1        518       1625       -119      -0.44       0.00       0.00      0.000
7:27am            347          1          9         39         78       74.3       47.3      29.36       47.3        518       1625       -119      -0.43       0.00       0.00      0.000
7:28am            347          2          9         39         78       74.3       47.3      29.36       47.3        518       1625       -119      -0.43       0.00       0.00      0.000
7:29am             11          5          9         39         79       74.3       47.3      29.36       45.0        518       1543       -119      -0.42       0.00       0.00      0.000
7:30am            349          3          9         39         78       74.3       47.3      29.36       46.6        518       1625       -119      -0.41       0.00       0.00      0.000
7:31am            360          2          6         40         78       74.3       47.3      29.36       47.3        519       1625       -118      -0.40       0.00       0.00      0.000
7:32am            360          2          6         39         78       74.3       47.2      29.36       47.2        519       1625       -125      -0.50       0.00       0.00      0.000
7:33am             10          3          6         39         79       74.3       47.2      29.36       46.5        519       1542       -125      -0.49       0.00       0.00      0.000
7:34am             10          1          6         39         79       74.3       47.2      29.36       47.2        519       1542       -125      -0.48       0.00       0.00      0.000
7:35am             10          0          6         40         79       74.3       47.2      29.36       47.2        520       1542       -124      -0.47       0.00       0.00      0.000
7:36am             10          0          2         39         79       74.3       47.2      29.36       47.2        520       1542       -124      -0.47       0.00       0.00      0.000
7:37am            310          2          5         39         79       74.3       47.3      29.36       47.3        520       1543       -117      -0.36       0.00       0.00      0.000
7:38am              6          2          5         39         79       74.3       47.3      29.36       47.3        519       1543       -118      -0.35       0.00       0.00      0.000
7:39am            354          1          5         39         79       74.3       47.3      29.36       47.3        519       1543       -118      -0.35       0.00       0.00      0.000
7:40am            336          0          5         39         79       74.3       47.4      29.36       47.4        519       1544       -111      -0.24       0.00       0.00      0.000
7:41am            336          2          2         39         80       74.3       47.3      29.36       47.3        519       1462       -118      -0.34       0.00       0.00      0.000
7:42am             12          1          2         39         79       74.3       47.4      29.36       47.4        520       1544       -110      -0.23       0.00       0.00      0.000
7:43am            354          1          5         39         79       74.3       47.3      29.36       47.3        520       1543       -117      -0.33       0.00       0.00      0.000
7:44am            354          2          5         39         79       74.3       47.4      29.36       47.4        520       1544       -110      -0.22       0.00       0.00      0.000
7:45am             22          3          5         39         79       74.3       47.4      29.36       46.7        519       1544       -111      -0.22       0.00       0.00      0.000
7:46am             22          2          3         39         80       74.3       47.4      29.36       47.4        519       1462       -111      -0.21       0.00       0.00      0.000
7:47am             22          2          3         39         80       74.3       47.4      29.36       47.4        519       1462       -111      -0.21       0.00       0.00      0.000
7:48am            343          4          8         39         80       74.3       47.4      29.36       45.9        519       1462       -111      -0.21       0.00       0.00      0.000
7:49am            331          2          8         39         80       74.3       47.4      29.36       47.4        519       1462       -111      -0.20       0.00       0.00      0.000
7:50am            331          2          8         39         80       74.3       47.5      29.36       47.5        519       1463       -105      -0.10       0.00       0.00      0.000
7:51am            356          1          3         39         80       74.3       47.5      29.36       47.5        518       1463       -106      -0.10       0.00       0.00      0.000
7:52am              4          1          3         39         80       74.3       47.5      29.36       47.5        518       1463       -106      -0.10       0.00       0.00      0.000
7:53am            354          2          3         39         80       74.3       47.6      29.37       47.6        517       1464       -100       0.00       0.00       0.00      0.000
7:54am            300          0          3         39         80       74.3       47.7      29.37       47.7        517       1464        -94       0.10       0.00       0.00      0.000
7:55am             49          2          4         39         80       74.3       47.8      29.36       47.8        518       1465        -86       0.20       0.00       0.00      0.000
7:56am             10          0          3         39         80       74.3       47.8      29.36       47.8        518       1465        -86       0.20       0.00       0.00      0.000
7:57am            333          0          3         39         80       74.3       47.9      29.37       47.9        517       1466        -80       0.29       0.00       0.00      0.000
7:58am             25          2          3         39         80       74.3       48.0      29.37       48.0        517       1466        -73       0.39       0.00       0.00      0.000
7:59am            289          2          3         39         80       74.3       48.1      29.37       48.1        516       1467        -68       0.48       0.00       0.00      0.000
8:00am            279          0          3         39         80       74.3       48.2      29.36       48.2        518       1468        -59       0.57       0.00       0.00      0.000
8:01am             56          3          5         39         80       74.3       48.2      29.36       47.6        518       1468        -59       0.56       0.00       0.00      0.000
8:02am             55          3          5         39         79       74.3       48.3      29.36       47.8        518       1550        -52       0.65       0.00       0.00      0.000
8:03am             43          1          5         39         79       74.3       48.4      29.36       48.4        518       1551        -45       0.74       0.00       0.00      0.000
8:04am            285          1          8         39         79       74.3       48.5      29.36       48.5        519       1551        -37       0.83       0.00       0.00      0.000
8:05am             28          2          8         39         78       74.3       48.5      29.36       48.5        518       1634        -39       0.81       0.00       0.00      0.000
8:06am             59          2          3         39         79       74.3       48.5      29.36       48.5        518       1551        -39       0.80       0.00       0.00      0.000
8:07am              7          2          4         39         78       74.3       48.6      29.36       48.6        518       1635        -32       0.89       0.00       0.00      0.000
8:08am            348          3          4         39         78       74.3       48.5      29.36       48.0        519       1634        -37       0.77       0.00       0.00      0.000
8:09am             13          3          5         41         76       74.3       48.5      29.36       48.0        519       1802        -37       0.76       0.00       0.00      0.000
8:10am             13          2          5         39         76       74.3       48.4      29.36       48.4        519       1801        -44       0.65       0.00       0.00      0.000
8:11am             13          1          3         39         75       74.3       48.4      29.36       48.4        519       1887        -44       0.64       0.00       0.00      0.000
8:12am              3          5          5         39         75       74.3       48.3      29.36       46.2        518       1886        -52       0.53       0.00       0.00      0.000
8:13am             12          3          8         39         74       74.3       48.3      29.36       47.8        518       1972        -52       0.52       0.00       0.00      0.000
8:14am             33          5          8         39         73       74.3       48.2      29.36       46.1        519       2059        -58       0.41       0.00       0.00      0.000
8:15am             25          5          8         39         73       74.3       48.1      29.36       46.0        518       2058        -65       0.31       0.00       0.00      0.000
8:16am             23          2          8         39         73       74.3       48.0      29.37       48.0        517       2057        -73       0.20       0.00       0.00      0.000
8:17am             21          2          8         39         73       74.3       47.9      29.37       47.9        516       2056        -81       0.10       0.00       0.00      0.000
8:18am             23          0          8         39         73       74.3       47.8      29.37       47.8        514       2055        -90      -0.00       0.00       0.00      0.000
8:19am             22          3          8         39         73       74.3       47.8      29.37       47.2        512       2055        -94      -0.00       0.00       0.00      0.000
8:20am             19          4          8         39         74       74.3       47.8      29.37       46.3        512       1968        -94      -0.00       0.00       0.00      0.000
8:21am             33          3          4         39         74       74.3       47.8      29.37       47.2        508       1968        -98      -0.00       0.00       0.00      0.000
8:22am             36          5          5         39         74       74.3       47.8      29.37       45.6        508       1968        -98      -0.00       0.00       0.00      0.000
8:23am             17          5          7         39         73       74.3       47.8      29.38       45.6        507       2055        -99      -0.00       0.00       0.00      0.000
8:24am             38          7          7         39         73       74.3       47.9      29.38       44.7        507       2056        -93       0.10       0.00       0.00      0.000
8:25am            346          2          7         39         73       74.3       47.9      29.37       47.9        510       2056        -89       0.10       0.00       0.00      0.000
8:26am            346          1          2         39         74       74.3       48.0      29.37       48.0        509       1970        -84       0.19       0.00       0.00      0.000
8:27am            347          1          2         39         74       74.3       48.1      29.37       48.1        509       1971        -77       0.29       0.00       0.00      0.000
8:28am            348          1          2         39         74       74.3       48.1      29.37       48.1        508       1971        -78       0.28       0.00       0.00      0.000
8:29am             58          0          2         39         74       74.3       48.3      29.38       48.3        507       1972        -66       0.48       0.00       0.00      0.000
8:30am            331          1          3         39         74       74.3       48.5      29.37       48.5        508       1974        -51       0.67       0.00       0.00      0.000
8:31am            333          3          3         39         74       74.3       48.7      29.37       48.2        509       1976        -37       0.86       0.00       0.00      0.000
8:32am             35          1          3         39         73       74.3       48.7      29.37       48.7        510       2064        -35       0.84       0.00       0.00      0.000
8:33am             73          2          3         39         73       74.3       48.9      29.37       48.9        511       2065        -21       1.03       0.00       0.00      0.000
8:34am             73          1          3         39         73       74.3       49.0      29.37       49.0        511       2066        -14       1.11       0.00       0.00      0.000
8:35am             70          2          3         39         73       74.3       49.1      29.37       49.1        511       2067         -7       1.19       0.00       0.00      0.000
8:36am             37          0          3         39         73       74.3       49.2      29.37       49.2        512       2068          0       1.27       0.00       0.00      0.000
8:37am             36          2          3         39         72       74.3       49.3      29.37       49.3        510       2158          5       1.35       0.00       0.00      0.000
8:38am            333          2          4         39         72       74.3       49.3      29.37       49.3        511       2158          6       1.32       0.00       0.00      0.000
8:39am             17          1          7         39         71       74.3       49.3      29.37       49.3        508       2248          3       1.30       0.00       0.00      0.000
8:40am            343          4          7         39         70       74.3       49.2      29.38       47.9        506       2338         -6       1.18       0.00       0.00      0.000
8:41am            350          5          5         39         70       74.3       49.1      29.38       47.2        507       2337        -12       1.06       0.00       0.00      0.000
8:42am             25          2          5         39         71       74.3       49.1      29.37       49.1        509       2246        -10       1.04       0.00       0.00      0.000
8:43am             26          2          6         39         71       74.3       49.0      29.38       49.0        507       2245        -19       0.93       0.00       0.00      0.000
8:44am             41          1          6         39         71       74.3       49.0      29.37       49.0        509       2245        -16       0.91       0.00       0.00      0.000
8:45am             28          0          6         39         71       74.3       49.0      29.37       49.0        510       2245        -15       0.90       0.00       0.00      0.000
8:46am             28          1          2         39         72       74.3       49.1      29.37       49.1        511       2156         -7       0.98       0.00       0.00      0.000
8:47am             40          5          5         39         71       74.2       49.1      29.37       47.2        512       2246         -5       0.97       0.00       0.00      0.000
8:48am            355          4          5         39         71       74.2       49.1      29.37       47.8        510       2246         -9       0.95       0.00       0.00      0.000
8:49am            284          4          7         39         71       74.2       49.1      29.37       47.8        510       2246         -9       0.93       0.00       0.00      0.000
8:50am            344          4          7         39         72       74.2       49.1      29.37       47.8        511       2156         -7       0.92       0.00       0.00      0.000
8:51am            310          2          4         39         71       74.2       49.1      29.37       49.1        509       2246        -10       0.90       0.00       0.00      0.000
8:52am            343          6          7         39         71       74.2       49.0      29.37       46.5        510       2245        -15       0.79       0.00       0.00      0.000
8:53am             27          2          7         39         71       74.2       49.0      29.37       49.0        511       2245        -14       0.78       0.00       0.00      0.000
8:54am            355          2          9         39         71       74.2       48.9      29.37       48.9        512       2244        -19       0.66       0.00       0.00      0.000
8:55am             48          3          9         39         71       74.2       48.9      29.37       48.4        512       2244        -19       0.65       0.00       0.00      0.000
8:56am            354          2          5         39         71       74.2       48.7      29.37       48.7        512       2242        -33       0.44       0.00       0.00      0.000
8:57am            359          3          5         39         70       74.2       48.7      29.37       48.2        509       2333        -37       0.44       0.00       0.00      0.000
8:58am             32          3          6         39         71       74.2       48.6      29.37       48.1        510       2241        -42       0.33       0.00       0.00      0.000
8:59am            348          4          6         39         70       74.2       48.5      29.37       47.1        511       2331        -48       0.23       0.00       0.00      0.000
9:00am            198          2          6         39         70       74.2       48.5      29.37       48.5        511       2331        -48       0.22       0.00       0.00      0.000
9:01am            198          1          3         39         71       74.2       48.5      29.37       48.5        513       2240        -44       0.22       0.00       0.00      0.000
9:02am            198          2          3         39         72       74.2       48.4      29.37       48.4        512       2149        -53       0.11       0.00       0.00      0.000
9:03am            198          2          3         39         72       74.2       48.6      29.37       48.6        512       2151        -40       0.31       0.00       0.00      0.000
9:04am            181          2          4         39         73       74.2       48.6      29.37       48.6        513       2063        -38       0.31       0.00       0.00      0.000
9:05am              6          3          4         39         73       74.2       48.7      29.37       48.2        512       2064        -32       0.40       0.00       0.00      0.000
9:06am             41          2          6         39         73       74.2       48.9      29.37       48.9        513       2065        -17       0.59       0.00       0.00      0.000
9:07am            320          3          6         39         72       74.2       49.0      29.37       48.5        513       2155        -11       0.68       0.00       0.00      0.000
9:08am            337          1          6         39         72       74.2       49.0      29.37       49.0        512       2155        -12       0.67       0.00       0.00      0.000
9:09am            347          3          6         39         73       74.2       49.3      29.37       48.9        512       2069          8       0.95       0.00       0.00      0.000
9:10am            333          4          6         39         72       74.2       49.3      29.37       48.1        512       2158          8       0.94       0.00       0.00      0.000
9:11am             25          3          6         39         71       74.2       49.5      29.37       49.1        513       2250         23       1.12       0.00       0.00      0.000
9:12am            342          2          6         39         70       74.2       49.5      29.37       49.5        514       2341         24       1.10       0.00       0.00      0.000
9:13am             12          4          6         39         68       74.2       49.5      29.37       48.3        514       2527         24       1.08       0.00       0.00      0.000
9:14am             25          6          6         39         68       74.2       49.6      29.37       47.2        514       2528         31       1.16       0.00       0.00      0.000
9:15am             18          3          6         39         68       74.2       49.6      29.37       49.2        513       2528         30       1.14       0.00       0.00      0.000
9:16am            358          1          7         39         67       74.2       49.6      29.37       49.6        513       2623         30       1.13       0.00       0.00      0.000
9:17am            341          4          7         39         67       74.2       49.5      29.37       48.3        514       2622         24       1.01       0.00       0.00      0.000
9:18am             18          5          7         39         68       74.2       49.5      29.37       47.6        512       2527         21       0.99       0.00       0.00      0.000
9:19am             66          2          7         39         68       74.2       49.4      29.37       49.4        514       2526         17       0.88       0.00       0.00      0.000
9:20am             36          2          7         39         68       74.2       49.5      29.37       49.5        513       2527         23       0.96       0.00       0.00      0.000
9:21am              9          3          6         39         68       74.2       49.5      29.37       49.1        512       2527         22       0.94       0.00       0.00      0.000
9:22am            347          4          6         39         67       74.2       49.5      29.37       48.3        515       2622         25       0.93       0.00       0.00      0.000
9:23am              6          8          8         39         67       74.2       49.6      29.37       46.3        514       2623         31       1.01       0.00       0.00      0.000
9:24am             73          5         10         39         67       74.2       49.6      29.37       47.7        510       2623         25       1.00       0.00       0.00      0.000
9:25am             16          5         10         39         65       74.2       49.6      29.37       47.7        512       2817         27       0.98       0.00       0.00      0.000
9:26am             10          4          7         39         65       74.2       49.6      29.37       48.4        511       2817         26       0.96       0.00       0.00      0.000
9:27am            351          5          9         39         64       74.2       49.6      29.37       47.7        513       2916         30       0.95       0.00       0.00      0.000
9:28am             19          8         10         39         65       74.2       49.6      29.37       46.3        512       2817         28       0.93       0.00       0.00      0.000
9:29am            351          5         10         39         64       74.2       49.6      29.37       47.7        512       2916         28       0.92       0.00       0.00      0.000
9:30am             27          3         10         39         64       74.2       49.6      29.37       49.2        514       2916         31       0.90       0.00       0.00      0.000
9:31am             33          3          5         39         65       74.2       49.7      29.37       49.3        514       2818         37       0.99       0.00       0.00      0.000
9:32am             27          6          8         39         65       74.2       49.7      29.37       47.3        515       2818         39       0.97       0.00       0.00      0.000
9:33am             21          3          8         39         64       74.2       49.8      29.37       49.5        514       2918         44       1.05       0.00       0.00      0.000
9:34am            352          3          8         39         65       74.2       49.8      29.37       49.5        515       2819         45       1.04       0.00       0.00      0.000
9:35am             13          2         10         39         65       74.2       49.9      29.37       49.9        514       2821         51       1.12       0.00       0.00      0.000
9:36am             25          5          5         39         65       74.2       49.9      29.37       48.1        514       2821         51       1.10       0.00       0.00      0.000
9:37am            343          2          7         39         65       74.2       50.1      29.37       50.1        515       2823         65       1.28       0.00       0.00      0.000
9:38am            334          1          7         39         66       74.3       50.2      29.37       50.2        517       2727         74       1.36       0.00       0.00      0.000
9:39am            357          3          7         39         66       74.3       50.3      29.37       50.0        517       2728         81       1.43       0.00       0.00      0.000
9:40am            340          5         10         39         65       74.3       50.4      29.37       48.7        517       2827         88       1.51       0.00       0.00      0.000
9:41am            300          5          6         39         64       74.3       50.5      29.36       48.8        518       2927         96       1.59       0.00       0.00      0.000
9:42am            285          2          6         39         66       74.3       50.6      29.37       50.6        517       2731        101       1.66       0.00       0.00      0.000
9:43am            283          5          6         39         66       74.3       50.8      29.36       49.2        518       2734        116       1.83       0.00       0.00      0.000
9:44am            107          3          6         39         66       74.3       51.0      29.37       50.8        517       2736        128       2.00       0.00       0.00      0.000
9:45am            335          3          6         39         66       74.3       51.3      29.36       51.1        518       2740        149       2.26       0.00       0.00      0.000
9:46am            334          1          3         39         65       74.3       51.3      29.36       51.3        518       2838        149       2.22       0.00       0.00      0.000
9:47am            332          4          5         39         65       74.3       51.4      29.36       50.5        518       2839        156       2.28       0.00       0.00      0.000
9:48am            341          3          5         39         63       74.3       51.4      29.37       51.3        517       3040        155       2.25       0.00       0.00      0.000
9:49am             14          5          9         39         63       74.3       51.4      29.36       49.9        518       3040        156       2.21       0.00       0.00      0.000
9:50am            348          4          9         39         63       74.3       51.4      29.37       50.5        516       3040        153       2.17       0.00       0.00      0.000
9:51am             81          5          5         39         63       74.3       51.3      29.37       49.7        517       3038        148       2.04       0.00       0.00      0.000
9:52am             81          4          5         39         62       74.3       51.3      29.37       50.4        517       3141        148       2.00       0.00       0.00      0.000
9:53am             80          4          5         39         63       74.3       51.2      29.37       50.3        516       3037        140       1.87       0.00       0.00      0.000
9:54am             14          3          7         39         63       74.3       51.3      29.37       51.1        515       3038        146       1.94       0.00       0.00      0.000
9:55am             77          3          7         39         62       74.2       51.2      29.37       51.0        515       3139        139       1.81       0.00       0.00      0.000
9:56am            348          4          4         39         62       74.3       51.2      29.37       50.3        517       3139        141       1.78       0.00       0.00      0.000
9:57am             19          4          7         39         63       74.3       51.2      29.36       50.3        518       3037        142       1.75       0.00       0.00      0.000
9:58am             98          3          7         39         63       74.3       51.2      29.36       51.0        518       3037        142       1.72       0.00       0.00      0.000
9:59am            351          1          7         39         63       74.3       51.3      29.36       51.3        518       3038        149       1.79       0.00       0.00      0.000
10:00am            61          2          7         39         64       74.3       51.3      29.36       51.3        519       2937        150       1.76       0.00       0.00      0.000
10:01am            80          2          3         39         63       74.3       51.4      29.36       51.4        519       3040        157       1.83       0.00       0.00      0.000
10:02am            85          4          5         39         63       74.3       51.6      29.36       50.7        519       3042        170       2.00       0.00       0.00      0.000
10:03am            66          2         12         39         62       74.3       51.7      29.36       51.7        519       3146        177       2.07       0.00       0.00      0.000
10:04am            15          1         12         39         63       74.3       51.8      29.36       51.8        518       3045        182       2.13       0.00       0.00      0.000
10:05am           287          3         12         39         63       74.3       52.0      29.36       51.9        518       3047        196       2.30       0.00       0.00      0.000
10:06am            17          5          7         39         62       74.3       52.0      29.36       50.6        518       3150        196       2.26       0.00       0.00      0.000
10:07am           342          1          7         39         61       74.3       52.1      29.36       52.1        518       3256        202       2.32       0.00       0.00      0.000
10:08am           340          1          7         39         62       74.3       52.1      29.36       52.1        519       3151        204       2.28       0.00       0.00      0.000
10:09am           350          1          7         39         61       74.3       52.2      29.36       52.2        519       3257        210       2.34       0.00       0.00      0.000
10:10am           339          5          7         39         62       74.3       52.2      29.36       50.8        519       3153        210       2.31       0.00       0.00      0.000
10:11am           349          0          5         39         61       74.3       52.2      29.36       52.2        519       3257        210       2.27       0.00       0.00      0.000
10:12am           350          8          8         39         60       74.3       52.3      29.36       49.6        519       3364        217       2.33       0.00       0.00      0.000
10:13am           346          2          8         39         61       74.3       52.2      29.36       52.2        519       3257        210       2.19       0.00       0.00      0.000
10:14am           349          2          9         39         61       74.3       52.3      29.36       52.3        519       3258        217       2.25       0.00       0.00      0.000
10:15am             8          3          9         39         61       74.3       52.3      29.36       52.3        519       3258        217       2.22       0.00       0.00      0.000
10:16am           326          2          4         39         62       74.3       52.4      29.36       52.4        518       3156        222       2.28       0.00       0.00      0.000
10:17am           288          1          4         39         62       74.3       52.6      29.36       52.6        518       3158        236       2.44       0.00       0.00      0.000
10:18am           310          2          7         39         62       74.3       52.7      29.36       52.7        518       3160        242       2.50       0.00       0.00      0.000
10:19am           344          2          7         39         61       74.3       52.8      29.36       52.8        518       3265        249       2.56       0.00       0.00      0.000
10:20am           282          3          7         39         60       74.3       52.9      29.36       52.9        518       3373        256       2.61       0.00       0.00      0.000
10:21am           242          0          3         39         61       74.3       53.0      29.36       53.0        518       3268        262       2.67       0.00       0.00      0.000
10:22am           349          4          5         39         62       74.3       53.0      29.37       52.3        517       3164        261       2.62       0.00       0.00      0.000
10:23am           346          3          5         39         61       74.3       53.2      29.37       53.2        517       3271        275       2.78       0.00       0.00      0.000
10:24am           355          5          9         39         60       74.3       53.1      29.36       51.9        518       3376        269       2.63       0.00       0.00      0.000
10:25am            12          3          9         39         59       74.3       53.1      29.36       53.1        518       3484        269       2.59       0.00       0.00      0.000
10:26am            17          2          6         39         59       74.3       53.0      29.36       53.0        518       3482        262       2.45       0.00       0.00      0.000
10:27am           300          4          6         39         59       74.3       53.0      29.36       52.3        518       3482        262       2.41       0.00       0.00      0.000
10:28am           358          4          6         39         59       74.3       52.9      29.36       52.2        519       3481        257       2.27       0.00       0.00      0.000
10:29am           310          2          6         39         61       74.3       52.9      29.36       52.9        520       3267        258       2.23       0.00       0.00      0.000
10:30am           335          3          6         39         61       74.3       53.0      29.36       53.0        520       3268        265       2.29       0.00       0.00      0.000
10:31am           354          2          4         39         60       74.3       53.0      29.36       53.0        520       3374        265       2.26       0.00       0.00      0.000
10:32am           354          2          4         39         60       74.3       53.1      29.36       53.1        521       3376        272       2.32       0.00       0.00      0.000
10:33am           341          1          4         39         60       74.3       53.1      29.36       53.1        520       3376        271       2.28       0.00       0.00      0.000
10:34am           346          5          7         39         61       74.3       53.2      29.36       52.0        520       3271        278       2.34       0.00       0.00      0.000
10:35am            14          8          8         39         59       74.3       53.2      29.36       50.7        520       3485        278       2.30       0.00       0.00      0.000
10:36am           357          2          9         39         59       74.3       53.2      29.36       53.2        520       3485        278       2.27       0.00       0.00      0.000
10:37am           349          1          9         39         60       74.3       53.1      29.36       53.1        519       3376        270       2.13       0.00       0.00      0.000
10:38am           349          1          9         39         59       74.3       53.1      29.36       53.1        519       3484        270       2.09       0.00       0.00      0.000
10:39am           337          2          9         39         59       74.3       53.1      29.36       53.1        519       3484        270       2.06       0.00       0.00      0.000
10:40am           342          1          9         39         60       74.3       53.1      29.36       53.1        519       3376        270       2.03       0.00       0.00      0.000
10:41am            37          2          7         39         59       74.3       53.1      29.36       53.1        519       3484        270       1.99       0.00       0.00      0.000
10:42am           336          5          7         39         59       74.3       53.2      29.36       52.0        519       3485        277       2.06       0.00       0.00      0.000
10:43am           335          4          7         39         59       74.3       53.2      29.36       52.6        518       3485        276       2.02       0.00       0.00      0.000
10:44am            85          3          7         39         58       74.3       53.2      29.36       53.2        518       3594        276       1.99       0.00       0.00      0.000
10:45am            38          2          7         39         58       74.3       53.3      29.36       53.3        518       3596        282       2.06       0.00       0.00      0.000
10:46am            41          3          9         39         58       74.3       53.3      29.37       53.3        516       3596        280       2.02       0.00       0.00      0.000
10:47am            41          0          9         39         59       74.3       53.2      29.37       53.2        517       3485        275       1.89       0.00       0.00      0.000
10:48am           112          2          9         39         60       74.3       53.2      29.37       53.2        517       3377        275       1.86       0.00       0.00      0.000
10:49am            71         10         10         39         59       74.3       53.3      29.37       50.1        516       3487        280       1.93       0.00       0.00      0.000
10:50am            88          4         11         39         58       74.3       53.4      29.37       52.8        515       3598        286       2.00       0.00       0.00      0.000
10:51am            58          3          8         39         58       74.3       53.3      29.37       53.3        513       3596        277       1.86       0.00       0.00      0.000
10:52am            56          1          8         39         58       74.3       53.4      29.37       53.4        512       3598        282       1.93       0.00       0.00      0.000
10:53am            34          2          8         39         57       74.3       53.4      29.37       53.4        512       3709        282       1.90       0.00       0.00      0.000
10:54am           140          4          8         39         57       74.3       53.4      29.37       52.8        512       3709        281       1.87       0.00       0.00      0.000
10:55am            98          3          8         39         58       74.3       53.5      29.37       53.5        512       3599        288       1.94       0.00       0.00      0.000
10:56am            39          1          5         39         58       74.3       53.4      29.37       53.4        512       3598        281       1.81       0.00       0.00      0.000
10:57am           360          5          7         39         58       74.3       53.5      29.37       52.3        512       3599        288       1.87       0.00       0.00      0.000
10:58am            21          5          8         39         58       74.3       53.5      29.37       52.3        512       3599        288       1.85       0.00       0.00      0.000
10:59am             6          4          8         39         56       74.3       53.4      29.37       52.8        510       3822        279       1.71       0.00       0.00      0.000
11:00am            11          3          8         39         57       74.3       53.3      29.37       53.3        512       3707        274       1.59       0.00       0.00      0.000
11:01am           353          3          4         39         57       74.3       53.2      29.37       53.2        511       3705        267       1.46       0.00       0.00      0.000
11:02am            84          1          4         39         57       74.3       53.3      29.37       53.3        511       3707        273       1.54       0.00       0.00      0.000
11:03am            46          3          5         39         59       74.3       53.3      29.37       53.3        511       3487        273       1.51       0.00       0.00      0.000
11:04am           360          1          5         39         56       74.3       53.3      29.37       53.3        510       3820        272       1.49       0.00       0.00      0.000
11:05am           351          6          8         39         58       74.3       53.3      29.37       51.6        512       3596        274       1.46       0.00       0.00      0.000
11:06am            35          2          6         39         59       74.3       53.5      29.37       53.5        512       3490        288       1.63       0.00       0.00      0.000
11:07am           351          2          6         39         59       74.3       53.6      29.37       53.6        510       3491        292       1.71       0.00       0.00      0.000
11:08am           351          0          6         39         61       74.3       53.8      29.37       53.8        509       3280        304       1.88       0.00       0.00      0.000
11:09am           357          0          6         39         60       74.3       53.9      29.37       53.9        509       3388        311       1.94       0.00       0.00      0.000
11:10am           300          0          6         39         57       74.3       54.1      29.37       54.1        511       3720        326       2.11       0.00       0.00      0.000
11:11am           310          0          0         39         57       74.3       54.1      29.37       54.1        509       3720        324       2.07       0.00       0.00      0.000
11:12am            85          0          0         39         57       74.3       54.1      29.37       54.1        508       3720        323       2.04       0.00       0.00      0.000
11:13am           272          0          0         39         56       74.3       54.1      29.37       54.1        512       3833        327       2.01       0.00       0.00      0.000
11:14am            25          0          0         39         55       74.3       54.1      29.37       54.1        512       3948        327       1.97       0.00       0.00      0.000
11:15am            86          0          0         39         55       74.3       53.9      29.37       53.9        510       3945        312       1.74       0.00       0.00      0.000
11:16am            21          0          0         39         57       74.3       53.9      29.37       53.9        514       3717        318       1.71       0.00       0.00      0.000
11:17am            14          0          0         39         56       74.3       54.0      29.37       54.0        514       3831        324       1.78       0.00       0.00      0.000
11:18am           350          0          0         39         55       74.3       54.0      29.37       54.0        513       3946        323       1.75       0.00       0.00      0.000
11:19am           203          0          0         39         57       74.3       54.1      29.37       54.1        508       3720        323       1.82       0.00       0.00      0.000
11:20am           358          0          0         39         57       74.3       54.1      29.38       54.1        507       3720        322       1.79       0.00       0.00      0.000
11:21am           356          0          0         39         55       74.3       54.1      29.38       54.1        506       3948        321       1.76       0.00       0.00      0.000
11:22am            38          0          0         39         55       74.3       54.1      29.38       54.1        507       3948        322       1.73       0.00       0.00      0.000
11:23am           346          0          0         39         55       74.3       54.1      29.38       54.1        506       3948        321       1.70       0.00       0.00      0.000
11:24am           349          0          0         39         56       74.3       54.0      29.38       54.0        506       3831        314       1.58       0.00       0.00      0.000
11:25am           349          0          0         39         57       74.3       54.0      29.37       54.0        508       3718        316       1.55       0.00       0.00      0.000
11:26am             4          0          0         39         59       74.3       54.1      29.38       54.1        507       3499        322       1.62       0.00       0.00      0.000
11:27am           350          0          0         39         60       74.3       54.3      29.38       54.3        505       3393        333       1.80       0.00       0.00      0.000
11:28am           350          0          0         39         60       74.3       54.4      29.38       54.4        504       3395        338       1.87       0.00       0.00      0.000
11:29am            83          0          0         39         57       74.3       54.7      29.38       54.7        503       3729        357       2.13       0.00       0.00      0.000
11:30am            94          7          9         39         54       74.3       54.7      29.38       52.9        504       4075        358       2.10       0.00       0.00      0.000
11:31am            92          3          7         39         55       74.3       54.7      29.38       54.7        503       3958        357       2.06       0.00       0.00      0.000
11:32am            92          4          7         39         56       74.3       54.7      29.38       54.3        503       3843        357       2.03       0.00       0.00      0.000
11:33am            15          7          8         39         57       74.3       54.7      29.38       52.9        502       3729        356       2.00       0.00       0.00      0.000
11:34am           243          1          8         39         58       74.3       54.7      29.38       54.7        503       3618        357       1.96       0.00       0.00      0.000
11:35am           300          2          8         39         58       74.3       54.7      29.38       54.7        502       3618        356       1.93       0.00       0.00      0.000
11:36am           310          4          4         39         59       74.3       54.8      29.38       54.4        503       3509        364       2.00       0.00       0.00      0.000
11:37am            50          2          4         39         57       74.3       54.8      29.38       54.8        504       3731        365       1.96       0.00       0.00      0.000
11:38am           341          5          8         39         56       74.3       54.8      29.38       53.9        504       3845        365       1.93       0.00       0.00      0.000
11:39am           331          4          8         39         55       74.3       54.7      29.38       54.3        504       3958        358       1.80       0.00       0.00      0.000
11:40am           358          1          8         39         57       74.3       54.6      29.38       54.6        504       3728        351       1.67       0.00       0.00      0.000
11:41am           345          4          6         39         56       74.3       54.5      29.38       54.1        505       3840        346       1.54       0.00       0.00      0.000
11:42am             3          4          8         39         56       74.3       54.4      29.38       54.0        505       3838        339       1.42       0.00       0.00      0.000
11:43am           346          6          8         39         56       74.3       54.3      29.38       52.8        505       3836        333       1.30       0.00       0.00      0.000
11:44am           333          2          8         39         57       74.3       54.2      29.38       54.2        504       3721        325       1.18       0.00       0.00      0.000
11:45am           251          3          8         39         57       74.3       54.2      29.38       54.2        505       3721        326       1.16       0.00       0.00      0.000
11:46am           202          1          3         39         58       74.3       54.2      29.38       54.2        505       3610        326       1.14       0.00       0.00      0.000
11:47am             8          4          4         39         57       74.3       54.3      29.38       53.8        505       3723        333       1.22       0.00       0.00      0.000
11:48am           247          1          5         39         56       74.3       54.3      29.38       54.3        505       3836        333       1.20       0.00       0.00      0.000
11:49am           310          3          5         39         56       74.3       54.4      29.38       54.4        504       3838        338       1.28       0.00       0.00      0.000
11:50am           282          3          5         39         56       74.3       54.4      29.38       54.4        504       3838        338       1.25       0.00       0.00      0.000
11:51am           318          1          3         39         57       74.3       54.5      29.38       54.5        504       3726        345       1.33       0.00       0.00      0.000
11:52am           292          2          4         39         58       74.3       54.5      29.38       54.5        504       3615        345       1.31       0.00       0.00      0.000
11:53am           358          2          4         39         57       74.3       54.5      29.38       54.5        504       3726        345       1.29       0.00       0.00      0.000
11:54am            55          2          5         39         57       74.3       54.6      29.38       54.6        505       3728        353       1.37       0.00       0.00      0.000
11:55am            44          1          5         39         57       74.3       54.7      29.38       54.7        505       3729        359       1.44       0.00       0.00      0.000
11:56am            20          5          8         39         57       74.3       54.7      29.38       53.7        506       3729        360       1.42       0.00       0.00      0.000
11:57am            16          4          8         39         56       74.3       54.7      29.38       54.3        506       3843        360       1.40       0.00       0.00      0.000
11:58am            83          3          8         39         56       74.3       54.6      29.38       54.6        506       3841        354       1.27       0.00       0.00      0.000
11:59am             8          3          8         39         56       74.3       54.5      29.38       54.5        507       3840        348       1.15       0.00       0.00      0.000
12:00pm             6          2          8         39         56       74.3       54.5      29.37       54.5        508       3840        349       1.13       0.00       0.00      0.000
12:01pm             6          2          2         39         58       74.3       54.5      29.37       54.5        508       3615        349       1.12       0.00       0.00      0.000
12:02pm           356          3          3         39         59       74.3       54.5      29.37       54.5        509       3505        351       1.10       0.00       0.00      0.000
12:03pm            27          3          6         39         56       74.3       54.6      29.37       54.6        510       3841        358       1.18       0.00       0.00      0.000
12:04pm           347          3          7         39         56       74.3       54.6      29.37       54.6        510       3841        358       1.16       0.00       0.00      0.000
12:05pm           326          2          7         39         56       74.3       54.5      29.37       54.5        511       3840        353       1.04       0.00       0.00      0.000
12:06pm            64          3         12         39         56       74.3       54.3      29.37       54.3        510       3836        338       0.82       0.00       0.00      0.000
12:07pm            29          1         12         41         55       74.3       54.2      29.37       54.2        510       3950        332       0.71       0.00       0.00      0.000
12:08pm             4          1         12         39         57       74.3       54.0      29.37       54.0        512       3718        321       0.50       0.00       0.00      0.000
12:09pm             4          0         12         39         58       74.3       54.0      29.37       54.0        511       3607        320       0.49       0.00       0.00      0.000
12:10pm           321          3         12         39         59       74.3       54.1      29.37       54.1        511       3499        326       0.58       0.00       0.00      0.000
12:11pm           321          0          3         39         59       74.3       54.2      29.37       54.2        514       3500        338       0.67       0.00       0.00      0.000
12:12pm           235          4          4         39         59       74.3       54.4      29.37       54.0        515       3503        352       0.86       0.00       0.00      0.000
12:13pm           336          4          4         39         58       74.3       54.5      29.37       54.1        514       3615        357       0.94       0.00       0.00      0.000
12:14pm            23          3          4         39         58       74.3       54.6      29.37       54.6        515       3616        365       1.03       0.00       0.00      0.000
12:15pm           341          2          5         39         57       74.3       54.7      29.37       54.7        517       3729        374       1.11       0.00       0.00      0.000
12:16pm            75          5          5         39         56       74.3       54.7      29.37       53.7        517       3843        374       1.09       0.00       0.00      0.000
12:17pm            95          6          7         39         55       74.5       54.5      29.37       53.0        517       3955        361       0.87       0.00       0.00      0.000
12:18pm            98          1          7         39         56       74.3       54.4      29.37       54.4        517       3838        354       0.76       0.00       0.00      0.000
12:19pm            98          2          7         39         56       74.3       54.3      29.37       54.3        517       3836        348       0.65       0.00       0.00      0.000
12:20pm            98          2          7         39         58       74.3       54.2      29.37       54.2        517       3610        341       0.54       0.00       0.00      0.000
12:21pm            98          1          2         39         59       74.3       54.3      29.36       54.3        518       3502        349       0.63       0.00       0.00      0.000
12:22pm           320          6          6         39         57       74.3       54.4      29.37       52.9        517       3725        354       0.72       0.00       0.00      0.000
12:23pm           357          1          6         39         56       74.3       54.4      29.37       54.4        517       3838        354       0.71       0.00       0.00      0.000
12:24pm           357          3          6         39         56       74.3       54.4      29.37       54.4        517       3838        354       0.69       0.00       0.00      0.000
12:25pm           350          3          6         39         56       74.3       54.3      29.37       54.3        516       3836        346       0.58       0.00       0.00      0.000
12:26pm           354          2          5         39         54       74.3       54.4      29.37       54.4        516       4070        353       0.67       0.00       0.00      0.000
12:27pm           256          1          5         39         55       74.3       54.4      29.37       54.4        517       3953        354       0.66       0.00       0.00      0.000
12:28pm            50          3          5         39         55       74.3       54.3      29.36       54.3        518       3951        349       0.55       0.00       0.00      0.000
12:29pm            25          5          5         39         56       74.3       54.4      29.37       53.4        517       3838        354       0.64       0.00       0.00      0.000
12:30pm            23          0          5         39         55       74.3       54.4      29.37       54.4        517       3953        354       0.63       0.00       0.00      0.000
12:31pm            79          3          4         39         56       74.3       54.5      29.37       54.5        517       3840        361       0.72       0.00       0.00      0.000
12:32pm            79          2          4         39         56       74.3       54.6      29.37       54.6        517       3841        367       0.81       0.00       0.00      0.000
12:33pm            26          3          4         39         57       74.3       54.8      29.37       54.8        516       3731        380       0.99       0.00       0.00      0.000
12:34pm            59          2          4         39         55       74.3       54.9      29.36       54.9        518       3962        388       1.07       0.00       0.00      0.000
12:35pm            77          2          6         39         55       74.3       55.0      29.36       55.0        518       3963        395       1.15       0.00       0.00      0.000
12:36pm            79          3          5         39         56       74.5       55.1      29.36       55.1        519       3850        403       1.23       0.00       0.00      0.000
12:37pm            95          2          5         39         56       74.5       55.2      29.36       55.2        519       3851        409       1.31       0.00       0.00      0.000
12:38pm            95          1          5         39         55       74.5       55.4      29.36       55.4        519       3970        423       1.49       0.00       0.00      0.000
12:39pm            95          1          5         39         54       74.5       55.5      29.36       55.5        519       4089        429       1.56       0.00       0.00      0.000
12:40pm            39          3          5         39         53       74.5       55.6      29.36       55.6        519       4211        436       1.64       0.00       0.00      0.000
12:41pm            79          1          3         39         53       74.5       55.6      29.36       55.6        519       4211        436       1.61       0.00       0.00      0.000
12:42pm            80          3          3         39         52       74.5       55.7      29.36       55.7        519       4334        443       1.68       0.00       0.00      0.000
12:43pm            78          5          9         39         51       74.5       55.7      29.36       54.9        519       4458        443       1.66       0.00       0.00      0.000
12:44pm            77          3          9         39         54       74.5       55.7      29.36       55.7        519       4093        443       1.63       0.00       0.00      0.000
12:45pm           359          2          9         39         54       74.5       55.7      29.36       55.7        519       4093        443       1.60       0.00       0.00      0.000
12:46pm            26          2          5         39         53       74.5       55.9      29.36       55.9        519       4216        456       1.77       0.00       0.00      0.000
12:47pm           328          3          5         39         52       74.5       55.8      29.36       55.8        519       4336        449       1.65       0.00       0.00      0.000
12:48pm           320          2          5         39         53       74.3       55.9      29.36       55.9        519       4216        456       1.72       0.00       0.00      0.000
12:49pm            31          7          7         39         55       74.5       55.9      29.36       54.3        519       3979        456       1.69       0.00       0.00      0.000
12:50pm           333          6          7         39         51       74.3       55.9      29.36       54.7        520       4462        457       1.66       0.00       0.00      0.000
12:51pm            87          5          8         39         52       74.5       55.9      29.36       55.1        519       4338        456       1.63       0.00       0.00      0.000
12:52pm            95          1          8         39         53       74.5       55.9      29.36       55.9        519       4216        456       1.61       0.00       0.00      0.000
12:53pm            87          1          8         39         54       74.3       56.0      29.36       56.0        519       4098        462       1.68       0.00       0.00      0.000
12:54pm            31          7          8         39         53       74.3       56.2      29.36       54.7        519       4222        476       1.85       0.00       0.00      0.000
12:55pm             7          1          8         39         52       74.5       56.2      29.36       56.2        519       4343        476       1.82       0.00       0.00      0.000
12:56pm             7          1          2         39         52       74.5       56.2      29.36       56.2        519       4343        476       1.79       0.00       0.00      0.000
12:57pm           310          2          2         39         52       74.5       56.2      29.36       56.2        520       4343        477       1.76       0.00       0.00      0.000
12:58pm           314          2          3         39         52       74.5       56.3      29.36       56.3        520       4345        483       1.83       0.00       0.00      0.000
12:59pm           108          3          6         39         53       74.5       56.4      29.36       56.4        519       4225        489       1.90       0.00       0.00      0.000
1:00pm            335          1          6         39         50       74.5       56.5      29.36       56.5        519       4599        495       1.96       0.00       0.00      0.000
1:01pm             85          1          3         39         50       74.5       56.6      29.36       56.6        519       4601        502       2.03       0.00       0.00      0.000
1:02pm             46          5          8         39         50       74.5       56.8      29.36       56.2        520       4605        516       2.20       0.00       0.00      0.000
1:03pm             85          3          8         39         48       74.5       56.8      29.36       56.8        521       4865        517       2.16       0.00       0.00      0.000
1:04pm             56          0          8         39         49       74.5       56.9      29.36       56.9        521       4736        524       2.22       0.00       0.00      0.000
1:05pm             46          7          8         39         49       74.5       56.9      29.36       55.5        522       4736        525       2.19       0.00       0.00      0.000
1:06pm             41          1          7         39         49       74.5       56.9      29.36       56.9        523       4736        526       2.15       0.00       0.00      0.000
1:07pm             61          2          7         39         50       74.5       56.9      29.36       56.9        523       4607        526       2.11       0.00       0.00      0.000
1:08pm            335          1          8         39         49       74.5       56.9      29.36       56.9        523       4736        526       2.08       0.00       0.00      0.000
1:09pm            331          6          8         39         50       74.5       57.0      29.36       56.0        524       4609        535       2.15       0.00       0.00      0.000
1:10pm            328          2          8         39         48       74.5       57.0      29.36       57.0        524       4869        534       2.11       0.00       0.00      0.000
1:11pm            354          1          3         39         48       74.5       57.0      29.36       57.0        525       4869        536       2.08       0.00       0.00      0.000
1:12pm            353          3          5         39         48       74.5       56.9      29.35       56.9        529       4867        534       1.94       0.00       0.00      0.000
1:13pm            358          2          5         39         48       74.5       56.9      29.35       56.9        529       4867        534       1.91       0.00       0.00      0.000
1:14pm            357          3          5         39         50       74.5       56.9      29.35       56.9        528       4607        533       1.88       0.00       0.00      0.000
1:15pm             62          3          5         39         49       74.5       57.0      29.35       57.0        530       4738        542       1.94       0.00       0.00      0.000
1:16pm             77          7          8         39         50       74.5       57.1      29.35       55.7        531       4611        550       2.01       0.00       0.00      0.000
1:17pm            110          5          9         39         49       74.5       57.1      29.35       56.6        532       4740        551       1.98       0.00       0.00      0.000
1:18pm            349          1          9         39         49       74.5       57.1      29.35       57.1        532       4740        551       1.95       0.00       0.00      0.000
1:19pm            349          0          9         39         50       74.5       57.1      29.35       57.1        533       4611        552       1.91       0.00       0.00      0.000

Data provided from:  Mark Hofmann's Bel Air, MD Weather Station